Observation data for Romero 11SSW on 02/23/2019      Previous  Date  Next       Current Mesonet Observations  Soil Data  Daily Summary Page  Observations in Plain Language
KBR1 230600Z 11012KT 03/03 A2967 RMK A01 T00330025  RH  094%=      5-min Rain = 0
KBR1 230601Z 10010KT 03/03 A2967 RMK A01 T00330025  RH  095%=      5-min Rain = 0
KBR1 230602Z 11009KT 03/03 A2967 RMK A01 T00330025  RH  095%=      5-min Rain = 0
KBR1 230603Z 10010KT 03/03 A2967 RMK A01 T00330025  RH  095%=      5-min Rain = 0
KBR1 230604Z 10011KT 03/03 A2966 RMK A01 T00330026  RH  095%=      5-min Rain = 0
KBR1 230605Z 10010KT 03/03 A2966 RMK A01 T00330026  RH  095%=      5-min Rain = 0
KBR1 230606Z 10011KT 03/03 A2966 RMK A01 T00320025  RH  095%=      5-min Rain = 0
KBR1 230607Z 10010KT 03/03 A2966 RMK A01 T00330025  RH  095%=      5-min Rain = 0
KBR1 230608Z 11009KT 03/03 A2966 RMK A01 T00320025  RH  095%=      5-min Rain = 0
KBR1 230609Z 10011KT 03/03 A2966 RMK A01 T00330026  RH  095%=      5-min Rain = 0
KBR1 230610Z 10010KT 03/03 A2966 RMK A01 T00320026  RH  095%=      5-min Rain = 0
KBR1 230611Z 10010KT 03/03 A2966 RMK A01 T00320025  RH  095%=      5-min Rain = 0
KBR1 230612Z 10010KT 03/03 A2966 RMK A01 T00320025  RH  095%=      5-min Rain = 0
KBR1 230613Z 10010KT 03/03 A2966 RMK A01 T00320025  RH  095%=      5-min Rain = 0
KBR1 230614Z 11009KT 03/03 A2966 RMK A01 T00320025  RH  096%=      5-min Rain = 0
KBR1 230615Z 11009KT 03/03 A2966 RMK A01 T00320025  RH  096%=      5-min Rain = 0
KBR1 230616Z 10010KT 03/03 A2966 RMK A01 T00320026  RH  096%=      5-min Rain = 0
KBR1 230617Z 10010KT 03/03 A2966 RMK A01 T00310025  RH  096%=      5-min Rain = 0
KBR1 230618Z 11009KT 03/03 A2966 RMK A01 T00320026  RH  096%=      5-min Rain = 0
KBR1 230619Z 11011KT 03/03 A2966 RMK A01 T00320026  RH  096%=      5-min Rain = 0
KBR1 230620Z 11010KT 03/03 A2966 RMK A01 T00320026  RH  096%=      5-min Rain = 0
KBR1 230621Z 11010KT 03/03 A2966 RMK A01 T00320026  RH  096%=      5-min Rain = 0
KBR1 230622Z 11010KT 03/03 A2965 RMK A01 T00320026  RH  096%=      5-min Rain = 0
KBR1 230623Z 11011KT 03/03 A2965 RMK A01 T00310026  RH  096%=      5-min Rain = 0
KBR1 230624Z 11012KT 03/03 A2965 RMK A01 T00310025  RH  096%=      5-min Rain = 0
KBR1 230625Z 11012KT 03/03 A2965 RMK A01 T00310026  RH  096%=      5-min Rain = 0
KBR1 230626Z 11011KT 03/03 A2965 RMK A01 T00310025  RH  096%=      5-min Rain = 0
KBR1 230627Z 11010KT 03/03 A2965 RMK A01 T00310025  RH  096%=      5-min Rain = 0
KBR1 230628Z 12011KT 03/03 A2966 RMK A01 T00310025  RH  096%=      5-min Rain = 0
KBR1 230629Z 12011KT 03/03 A2966 RMK A01 T00310025  RH  096%=      5-min Rain = 0
KBR1 230630Z 12011KT 03/03 A2966 RMK A01 T00310026  RH  096%=      5-min Rain = 0
KBR1 230631Z 12010KT 03/03 A2966 RMK A01 T00310025  RH  096%=      5-min Rain = 0
KBR1 230632Z 12009KT 03/03 A2966 RMK A01 T00310026  RH  096%=      5-min Rain = 0
KBR1 230633Z 12011KT 03/03 A2966 RMK A01 T00310026  RH  096%=      5-min Rain = 0
KBR1 230634Z 12011KT 03/03 A2966 RMK A01 T00310026  RH  096%=      5-min Rain = 0
KBR1 230635Z 12009KT 03/03 A2966 RMK A01 T00310026  RH  096%=      5-min Rain = 0
KBR1 230636Z 12009KT 03/03 A2966 RMK A01 T00310025  RH  096%=      5-min Rain = 0
KBR1 230637Z 12011KT 03/03 A2966 RMK A01 T00310026  RH  097%=      5-min Rain = 0
KBR1 230638Z 12011KT 03/03 A2966 RMK A01 T00310026  RH  097%=      5-min Rain = 0
KBR1 230639Z 12011KT 03/03 A2966 RMK A01 T00310026  RH  097%=      5-min Rain = 0
KBR1 230640Z 13011KT 03/03 A2966 RMK A01 T00310026  RH  097%=      5-min Rain = 0
KBR1 230641Z 12010KT 03/03 A2966 RMK A01 T00320027  RH  097%=      5-min Rain = 0
KBR1 230642Z 12009KT 03/03 A2966 RMK A01 T00320027  RH  097%=      5-min Rain = 0
KBR1 230643Z 12011KT 03/03 A2966 RMK A01 T00320027  RH  097%=      5-min Rain = 0
KBR1 230644Z 12011KT 03/03 A2966 RMK A01 T00320027  RH  097%=      5-min Rain = 0
KBR1 230645Z 12011KT 03/03 A2966 RMK A01 T00320027  RH  096%=      5-min Rain = 0
KBR1 230646Z 12010KT 03/03 A2966 RMK A01 T00320027  RH  096%=      5-min Rain = 0
KBR1 230647Z 12010KT 03/03 A2966 RMK A01 T00320026  RH  096%=      5-min Rain = 0.01
KBR1 230648Z 12010KT 03/03 A2966 RMK A01 T00320026  RH  096%=      5-min Rain = 0
KBR1 230649Z 12008KT 03/03 A2966 RMK A01 T00320026  RH  096%=      5-min Rain = 0
KBR1 230650Z 12009KT 03/03 A2966 RMK A01 T00320026  RH  096%=      5-min Rain = 0
KBR1 230651Z 12011KT 03/03 A2966 RMK A01 T00320026  RH  096%=      5-min Rain = 0
KBR1 230652Z 12011KT 03/03 A2966 RMK A01 T00310026  RH  096%=      5-min Rain = 0
KBR1 230653Z 13008KT 03/03 A2966 RMK A01 T00320026  RH  096%=      5-min Rain = 0
KBR1 230654Z 12009KT 03/03 A2966 RMK A01 T00320027  RH  096%=      5-min Rain = 0
KBR1 230655Z 12008KT 03/03 A2966 RMK A01 T00310026  RH  096%=      5-min Rain = 0.01
KBR1 230656Z 12008KT 03/03 A2966 RMK A01 T00310026  RH  096%=      5-min Rain = 0
KBR1 230657Z 11007KT 03/03 A2966 RMK A01 T00320026  RH  096%=      5-min Rain = 0
KBR1 230658Z 12007KT 03/03 A2966 RMK A01 T00310026  RH  097%=      5-min Rain = 0
KBR1 230659Z 11006KT 03/03 A2966 RMK A01 T00320027  RH  097%=      5-min Rain = 0.01
KBR1 230700Z 11006KT 03/03 A2966 RMK A01 T00320027  RH  097%=      5-min Rain = 0
KBR1 230701Z 11006KT 03/03 A2965 RMK A01 T00320027  RH  097%=      5-min Rain = 0
KBR1 230702Z 11007KT 03/03 A2965 RMK A01 T00320027  RH  097%=      5-min Rain = 0
KBR1 230703Z 11007KT 03/03 A2965 RMK A01 T00320027  RH  097%=      5-min Rain = 0.01
KBR1 230704Z 11007KT 03/03 A2965 RMK A01 T00320027  RH  097%=      5-min Rain = 0
KBR1 230705Z 11007KT 03/03 A2965 RMK A01 T00320028  RH  097%=      5-min Rain = 0
KBR1 230706Z 11008KT 03/03 A2965 RMK A01 T00320027  RH  097%=      5-min Rain = 0
KBR1 230707Z 11007KT 03/03 A2965 RMK A01 T00320028  RH  097%=      5-min Rain = 0.01
KBR1 230708Z 12008KT 03/03 A2965 RMK A01 T00330028  RH  097%=      5-min Rain = 0
KBR1 230709Z 12007KT 03/03 A2965 RMK A01 T00320028  RH  097%=      5-min Rain = 0
KBR1 230710Z 13007KT 03/03 A2966 RMK A01 T00330028  RH  097%=      5-min Rain = 0
KBR1 230711Z 13006KT 03/03 A2965 RMK A01 T00330029  RH  097%=      5-min Rain = 0.01
KBR1 230712Z 12006KT 03/03 A2965 RMK A01 T00330028  RH  097%=      5-min Rain = 0
KBR1 230713Z 13007KT 03/03 A2965 RMK A01 T00330028  RH  097%=      5-min Rain = 0
KBR1 230714Z 12007KT 03/03 A2965 RMK A01 T00330028  RH  097%=      5-min Rain = 0
KBR1 230715Z 13006KT 03/03 A2965 RMK A01 T00330029  RH  097%=      5-min Rain = 0
KBR1 230716Z 12008KT 03/03 A2965 RMK A01 T00330029  RH  097%=      5-min Rain = 0
KBR1 230717Z 14010KT 03/03 A2965 RMK A01 T00340029  RH  097%=      5-min Rain = 0
KBR1 230718Z 17010KT 04/03 A2965 RMK A01 T00350030  RH  097%=      5-min Rain = 0
KBR1 230719Z 14009KT 04/03 A2965 RMK A01 T00360031  RH  097%=      5-min Rain = 0
KBR1 230720Z 16007KT 04/03 A2965 RMK A01 T00360031  RH  097%=      5-min Rain = 0
KBR1 230721Z 16007KT 04/03 A2965 RMK A01 T00360030  RH  096%=      5-min Rain = 0
KBR1 230722Z 16008G13KT 04/03 A2965 RMK A01 T00350029  RH  096%=      5-min Rain = 0
KBR1 230723Z 17011KT 04/03 A2965 RMK A01 T00360031  RH  096%=      5-min Rain = 0
KBR1 230724Z 17009KT 04/03 A2965 RMK A01 T00380033  RH  097%=      5-min Rain = 0
KBR1 230725Z 17013G19KT 04/03 A2965 RMK A01 T00380033  RH  096%=      5-min Rain = 0
KBR1 230726Z 18014G19KT 04/03 A2965 RMK A01 T00400033  RH  096%=      5-min Rain = 0.01
KBR1 230727Z 19013KT 04/03 A2965 RMK A01 T00420034  RH  095%=      5-min Rain = 0
KBR1 230728Z 18013KT 04/03 A2965 RMK A01 T00420034  RH  094%=      5-min Rain = 0
KBR1 230729Z 19014KT 04/03 A2965 RMK A01 T00420034  RH  094%=      5-min Rain = 0
KBR1 230730Z 19016KT 04/03 A2966 RMK A01 T00420034  RH  094%=      5-min Rain = 0
KBR1 230731Z 21013KT 04/03 A2966 RMK A01 T00420034  RH  094%=      5-min Rain = 0
KBR1 230732Z 21016KT 04/03 A2966 RMK A01 T00430033  RH  094%=      5-min Rain = 0
KBR1 230733Z 23015KT 04/03 A2966 RMK A01 T00430033  RH  093%=      5-min Rain = 0
KBR1 230734Z 23018KT 04/03 A2966 RMK A01 T00420032  RH  093%=      5-min Rain = 0
KBR1 230735Z 23016KT 04/03 A2966 RMK A01 T00420030  RH  092%=      5-min Rain = 0
KBR1 230736Z 25018KT 04/03 A2966 RMK A01 T00410029  RH  092%=      5-min Rain = 0
KBR1 230737Z 26019KT 04/03 A2966 RMK A01 T00410027  RH  091%=      5-min Rain = 0
KBR1 230738Z 25017G22KT 04/03 A2966 RMK A01 T00410026  RH  090%=      5-min Rain = 0
KBR1 230739Z 26016KT 04/03 A2966 RMK A01 T00410025  RH  089%=      5-min Rain = 0
KBR1 230740Z 26016KT 04/03 A2966 RMK A01 T00410025  RH  090%=      5-min Rain = 0
KBR1 230741Z 26017KT 04/03 A2966 RMK A01 T00400025  RH  090%=      5-min Rain = 0
KBR1 230742Z 26017KT 04/02 A2966 RMK A01 T00390024  RH  090%=      5-min Rain = 0
KBR1 230743Z 26017KT 04/02 A2966 RMK A01 T00390022  RH  089%=      5-min Rain = 0
KBR1 230744Z 26015KT 04/02 A2966 RMK A01 T00380022  RH  089%=      5-min Rain = 0
KBR1 230745Z 26018KT 04/02 A2966 RMK A01 T00370021  RH  090%=      5-min Rain = 0
KBR1 230746Z 26018KT 04/02 A2966 RMK A01 T00360020  RH  089%=      5-min Rain = 0
KBR1 230747Z 26016KT 04/02 A2966 RMK A01 T00350018  RH  089%=      5-min Rain = 0
KBR1 230748Z 26012KT 04/02 A2966 RMK A01 T00350019  RH  089%=      5-min Rain = 0
KBR1 230749Z 26014KT 03/02 A2966 RMK A01 T00340020  RH  090%=      5-min Rain = 0
KBR1 230750Z 26013KT 03/02 A2966 RMK A01 T00340019  RH  090%=      5-min Rain = 0
KBR1 230751Z 26012KT 03/02 A2966 RMK A01 T00330019  RH  091%=      5-min Rain = 0
KBR1 230752Z 26012KT 03/02 A2966 RMK A01 T00320018  RH  090%=      5-min Rain = 0
KBR1 230753Z 26013KT 03/02 A2966 RMK A01 T00320018  RH  090%=      5-min Rain = 0.01
KBR1 230754Z 26013KT 03/02 A2966 RMK A01 T00320018  RH  090%=      5-min Rain = 0
KBR1 230755Z 26010KT 03/02 A2966 RMK A01 T00320017  RH  091%=      5-min Rain = 0
KBR1 230756Z 26013KT 03/02 A2966 RMK A01 T00310018  RH  091%=      5-min Rain = 0
KBR1 230757Z 26012KT 03/02 A2966 RMK A01 T00310017  RH  091%=      5-min Rain = 0
KBR1 230758Z 26012KT 03/02 A2966 RMK A01 T00310017  RH  091%=      5-min Rain = 0
KBR1 230759Z 26012KT 03/02 A2966 RMK A01 T00300017  RH  091%=      5-min Rain = 0
KBR1 230800Z 26012KT 03/02 A2966 RMK A01 T00300017  RH  091%=      5-min Rain = 0
KBR1 230801Z 26011KT 03/02 A2966 RMK A01 T00300017  RH  091%=      5-min Rain = 0
KBR1 230802Z 26011KT 03/02 A2966 RMK A01 T00300017  RH  091%=      5-min Rain = 0
KBR1 230803Z 25011KT 03/02 A2966 RMK A01 T00300018  RH  092%=      5-min Rain = 0
KBR1 230804Z 25012KT 03/02 A2966 RMK A01 T00300018  RH  092%=      5-min Rain = 0
KBR1 230805Z 25012KT 03/02 A2966 RMK A01 T00300017  RH  092%=      5-min Rain = 0
KBR1 230806Z 25013KT 03/02 A2966 RMK A01 T00300017  RH  091%=      5-min Rain = 0
KBR1 230807Z 25011KT 03/02 A2966 RMK A01 T00300017  RH  091%=      5-min Rain = 0
KBR1 230808Z 25010KT 03/02 A2966 RMK A01 T00300017  RH  091%=      5-min Rain = 0
KBR1 230809Z 25012KT 03/02 A2966 RMK A01 T00290017  RH  092%=      5-min Rain = 0
KBR1 230810Z 25012KT 03/02 A2966 RMK A01 T00290017  RH  092%=      5-min Rain = 0
KBR1 230811Z 25011KT 03/02 A2966 RMK A01 T00290017  RH  092%=      5-min Rain = 0.01
KBR1 230812Z 25010KT 03/02 A2966 RMK A01 T00290017  RH  092%=      5-min Rain = 0
KBR1 230813Z 25010KT 03/02 A2966 RMK A01 T00290018  RH  092%=      5-min Rain = 0
KBR1 230814Z 25009KT 03/02 A2966 RMK A01 T00290018  RH  092%=      5-min Rain = 0
KBR1 230815Z 24009KT 03/02 A2966 RMK A01 T00290018  RH  093%=      5-min Rain = 0
KBR1 230816Z 24010KT 03/02 A2966 RMK A01 T00280018  RH  093%=      5-min Rain = 0
KBR1 230817Z 24009KT 03/02 A2966 RMK A01 T00280018  RH  093%=      5-min Rain = 0
KBR1 230818Z 24009KT 03/02 A2966 RMK A01 T00290018  RH  093%=      5-min Rain = 0
KBR1 230819Z 24008KT 03/02 A2966 RMK A01 T00280018  RH  093%=      5-min Rain = 0
KBR1 230820Z 24007KT 03/02 A2966 RMK A01 T00280019  RH  093%=      5-min Rain = 0
KBR1 230821Z 24007KT 03/02 A2966 RMK A01 T00280019  RH  093%=      5-min Rain = 0
KBR1 230822Z 24006KT 03/02 A2966 RMK A01 T00280019  RH  094%=      5-min Rain = 0
KBR1 230823Z 24008KT 03/02 A2966 RMK A01 T00280019  RH  094%=      5-min Rain = 0
KBR1 230824Z 23008KT 03/02 A2966 RMK A01 T00280019  RH  094%=      5-min Rain = 0
KBR1 230825Z 23009KT 03/02 A2966 RMK A01 T00280019  RH  093%=      5-min Rain = 0
KBR1 230826Z 23008KT 03/02 A2966 RMK A01 T00290019  RH  093%=      5-min Rain = 0
KBR1 230827Z 23009KT 03/02 A2965 RMK A01 T00290019  RH  093%=      5-min Rain = 0.01
KBR1 230828Z 23008KT 03/02 A2965 RMK A01 T00290019  RH  093%=      5-min Rain = 0
KBR1 230829Z 22008KT 03/02 A2965 RMK A01 T00300020  RH  093%=      5-min Rain = 0
KBR1 230830Z 22008KT 03/02 A2965 RMK A01 T00300020  RH  093%=      5-min Rain = 0
KBR1 230831Z 22007KT 03/02 A2966 RMK A01 T00300020  RH  093%=      5-min Rain = 0
KBR1 230832Z 22008KT 03/02 A2966 RMK A01 T00300021  RH  094%=      5-min Rain = 0
KBR1 230833Z 22010KT 03/02 A2966 RMK A01 T00300021  RH  094%=      5-min Rain = 0
KBR1 230834Z 22008KT 03/02 A2966 RMK A01 T00300020  RH  094%=      5-min Rain = 0
KBR1 230835Z 22008KT 03/02 A2966 RMK A01 T00300021  RH  094%=      5-min Rain = 0
KBR1 230836Z 21008KT 03/02 A2966 RMK A01 T00300021  RH  094%=      5-min Rain = 0
KBR1 230837Z 21008KT 03/02 A2966 RMK A01 T00300021  RH  094%=      5-min Rain = 0.01
KBR1 230838Z 21010KT 03/02 A2966 RMK A01 T00300021  RH  094%=      5-min Rain = 0
KBR1 230839Z 22012KT 03/02 A2966 RMK A01 T00300020  RH  093%=      5-min Rain = 0
KBR1 230840Z 22011KT 03/02 A2966 RMK A01 T00300019  RH  093%=      5-min Rain = 0
KBR1 230841Z 22008KT 03/02 A2965 RMK A01 T00300020  RH  093%=      5-min Rain = 0
KBR1 230842Z 20009G14KT 03/02 A2965 RMK A01 T00300020  RH  093%=      5-min Rain = 0
KBR1 230843Z 21012KT 03/02 A2965 RMK A01 T00300019  RH  093%=      5-min Rain = 0.01
KBR1 230844Z 21009KT 03/02 A2965 RMK A01 T00290018  RH  092%=      5-min Rain = 0
KBR1 230845Z 21009KT 03/02 A2965 RMK A01 T00290018  RH  092%=      5-min Rain = 0
KBR1 230846Z 21009KT 03/02 A2965 RMK A01 T00290018  RH  092%=      5-min Rain = 0
KBR1 230847Z 21008KT 03/02 A2965 RMK A01 T00290018  RH  093%=      5-min Rain = 0
KBR1 230848Z 21009KT 03/02 A2964 RMK A01 T00280017  RH  093%=      5-min Rain = 0
KBR1 230849Z 21009KT 03/02 A2964 RMK A01 T00280017  RH  093%=      5-min Rain = 0
KBR1 230850Z 21010KT 03/02 A2964 RMK A01 T00280017  RH  092%=      5-min Rain = 0
KBR1 230851Z 20008KT 03/02 A2964 RMK A01 T00280016  RH  092%=      5-min Rain = 0
KBR1 230852Z 20008KT 03/02 A2964 RMK A01 T00280016  RH  092%=      5-min Rain = 0
KBR1 230853Z 20008KT 03/02 A2964 RMK A01 T00280017  RH  093%=      5-min Rain = 0.01
KBR1 230854Z 20009KT 03/02 A2964 RMK A01 T00270017  RH  093%=      5-min Rain = 0
KBR1 230855Z 19008KT 03/02 A2964 RMK A01 T00270016  RH  092%=      5-min Rain = 0
KBR1 230856Z 19008KT 03/02 A2963 RMK A01 T00270015  RH  092%=      5-min Rain = 0
KBR1 230857Z 20007KT 03/02 A2963 RMK A01 T00270016  RH  092%=      5-min Rain = 0
KBR1 230858Z 19007KT 03/02 A2963 RMK A01 T00270015  RH  092%=      5-min Rain = 0
KBR1 230859Z 20006KT 03/02 A2963 RMK A01 T00270015  RH  092%=      5-min Rain = 0
KBR1 230900Z 20006KT 03/02 A2963 RMK A01 T00270016  RH  092%=      5-min Rain = 0
KBR1 230901Z 19005KT 03/02 A2963 RMK A01 T00260016  RH  093%=      5-min Rain = 0
KBR1 230902Z 18006KT 03/02 A2963 RMK A01 T00260016  RH  093%=      5-min Rain = 0
KBR1 230903Z 18006KT 03/02 A2963 RMK A01 T00260017  RH  093%=      5-min Rain = 0
KBR1 230904Z 18007KT 03/02 A2962 RMK A01 T00260016  RH  093%=      5-min Rain = 0
KBR1 230905Z 18006KT 03/02 A2962 RMK A01 T00260017  RH  094%=      5-min Rain = 0
KBR1 230906Z 18007KT 03/02 A2962 RMK A01 T00260017  RH  094%=      5-min Rain = 0
KBR1 230907Z 18007KT 03/02 A2962 RMK A01 T00260017  RH  094%=      5-min Rain = 0
KBR1 230908Z 18007KT 03/02 A2962 RMK A01 T00260017  RH  094%=      5-min Rain = 0
KBR1 230909Z 18007KT 03/02 A2962 RMK A01 T00260017  RH  094%=      5-min Rain = 0
KBR1 230910Z 17007KT 03/02 A2962 RMK A01 T00260017  RH  094%=      5-min Rain = 0
KBR1 230911Z 17008KT 03/02 A2962 RMK A01 T00260017  RH  094%=      5-min Rain = 0
KBR1 230912Z 17007KT 03/02 A2961 RMK A01 T00260017  RH  094%=      5-min Rain = 0
KBR1 230913Z 16006KT 03/02 A2961 RMK A01 T00260017  RH  094%=      5-min Rain = 0
KBR1 230914Z 15006KT 03/02 A2961 RMK A01 T00260017  RH  094%=      5-min Rain = 0
KBR1 230915Z 16006KT 03/02 A2961 RMK A01 T00260017  RH  094%=      5-min Rain = 0
KBR1 230916Z 16006KT 03/02 A2961 RMK A01 T00260017  RH  094%=      5-min Rain = 0
KBR1 230917Z 16006KT 03/02 A296 RMK A01 T00260017  RH  094%=      5-min Rain = 0
KBR1 230918Z 16005KT 03/02 A296 RMK A01 T00260017  RH  094%=      5-min Rain = 0
KBR1 230919Z 15005KT 03/02 A296 RMK A01 T00260017  RH  094%=      5-min Rain = 0
KBR1 230920Z 16005KT 03/02 A296 RMK A01 T00260017  RH  094%=      5-min Rain = 0
KBR1 230921Z 16005KT 03/02 A296 RMK A01 T00260017  RH  094%=      5-min Rain = 0
KBR1 230922Z 16006KT 03/02 A296 RMK A01 T00260017  RH  094%=      5-min Rain = 0
KBR1 230923Z 15006KT 03/02 A296 RMK A01 T00260017  RH  094%=      5-min Rain = 0
KBR1 230924Z 15006KT 03/02 A296 RMK A01 T00260017  RH  094%=      5-min Rain = 0
KBR1 230925Z 15006KT 03/02 A296 RMK A01 T00260017  RH  094%=      5-min Rain = 0
KBR1 230926Z 16007KT 03/02 A296 RMK A01 T00260017  RH  094%=      5-min Rain = 0
KBR1 230927Z 16006KT 03/02 A296 RMK A01 T00260017  RH  094%=      5-min Rain = 0
KBR1 230928Z 16006KT 03/02 A296 RMK A01 T00260017  RH  094%=      5-min Rain = 0
KBR1 230929Z 17007KT 03/02 A296 RMK A01 T00260017  RH  094%=      5-min Rain = 0
KBR1 230930Z 17007KT 03/02 A296 RMK A01 T00260017  RH  094%=      5-min Rain = 0
KBR1 230931Z 17007KT 03/02 A296 RMK A01 T00260018  RH  094%=      5-min Rain = 0
KBR1 230932Z 18007KT 03/02 A296 RMK A01 T00250017  RH  094%=      5-min Rain = 0
KBR1 230933Z 18007KT 03/02 A296 RMK A01 T00260017  RH  094%=      5-min Rain = 0
KBR1 230934Z 18007KT 03/02 A296 RMK A01 T00260017  RH  094%=      5-min Rain = 0
KBR1 230935Z 18006KT 03/02 A296 RMK A01 T00260018  RH  094%=      5-min Rain = 0
KBR1 230936Z 18008KT 03/02 A296 RMK A01 T00260018  RH  095%=      5-min Rain = 0
KBR1 230937Z 18007KT 03/02 A296 RMK A01 T00260018  RH  095%=      5-min Rain = 0
KBR1 230938Z 18007KT 03/02 A296 RMK A01 T00250018  RH  095%=      5-min Rain = 0
KBR1 230939Z 17007KT 03/02 A296 RMK A01 T00250018  RH  095%=      5-min Rain = 0
KBR1 230940Z 18007KT 03/02 A296 RMK A01 T00250018  RH  095%=      5-min Rain = 0
KBR1 230941Z 17007KT 03/02 A296 RMK A01 T00250018  RH  095%=      5-min Rain = 0
KBR1 230942Z 17007KT 03/02 A296 RMK A01 T00250018  RH  095%=      5-min Rain = 0
KBR1 230943Z 17007KT 03/02 A296 RMK A01 T00250018  RH  095%=      5-min Rain = 0
KBR1 230944Z 17007KT 03/02 A2959 RMK A01 T00250017  RH  095%=      5-min Rain = 0
KBR1 230945Z 17007KT 03/02 A2959 RMK A01 T00250017  RH  095%=      5-min Rain = 0
KBR1 230946Z 17007KT 03/02 A296 RMK A01 T00250017  RH  095%=      5-min Rain = 0
KBR1 230947Z 17006KT 03/02 A296 RMK A01 T00250017  RH  095%=      5-min Rain = 0
KBR1 230948Z 17007KT 03/02 A296 RMK A01 T00250018  RH  095%=      5-min Rain = 0
KBR1 230949Z 17006KT 03/02 A296 RMK A01 T00250018  RH  095%=      5-min Rain = 0
KBR1 230950Z 17007KT 03/02 A296 RMK A01 T00250018  RH  095%=      5-min Rain = 0
KBR1 230951Z 18007KT 02/02 A296 RMK A01 T00240018  RH  095%=      5-min Rain = 0
KBR1 230952Z 18007KT 02/02 A296 RMK A01 T00240018  RH  095%=      5-min Rain = 0
KBR1 230953Z 18007KT 02/02 A296 RMK A01 T00240018  RH  095%=      5-min Rain = 0
KBR1 230954Z 17007KT 02/02 A2959 RMK A01 T00240018  RH  096%=      5-min Rain = 0
KBR1 230955Z 18007KT 02/02 A2959 RMK A01 T00240018  RH  096%=      5-min Rain = 0
KBR1 230956Z 17007KT 02/02 A2959 RMK A01 T00240018  RH  096%=      5-min Rain = 0
KBR1 230957Z 18007KT 02/02 A2959 RMK A01 T00240018  RH  096%=      5-min Rain = 0
KBR1 230958Z 17007KT 02/02 A2959 RMK A01 T00240018  RH  096%=      5-min Rain = 0
KBR1 230959Z 17007KT 02/02 A2959 RMK A01 T00240018  RH  096%=      5-min Rain = 0
KBR1 231000Z 17006KT 02/02 A2959 RMK A01 T00240017  RH  096%=      5-min Rain = 0
KBR1 231001Z 17006KT 02/02 A2959 RMK A01 T00240018  RH  096%=      5-min Rain = 0
KBR1 231002Z 17006KT 02/02 A2959 RMK A01 T00240017  RH  096%=      5-min Rain = 0
KBR1 231003Z 17005KT 02/02 A2959 RMK A01 T00240018  RH  096%=      5-min Rain = 0
KBR1 231004Z 17006KT 02/02 A2959 RMK A01 T00240018  RH  096%=      5-min Rain = 0
KBR1 231005Z 18006KT 02/02 A2959 RMK A01 T00240018  RH  096%=      5-min Rain = 0
KBR1 231006Z 18006KT 02/02 A2959 RMK A01 T00240017  RH  096%=      5-min Rain = 0
KBR1 231007Z 17006KT 02/02 A2958 RMK A01 T00240017  RH  095%=      5-min Rain = 0
KBR1 231008Z 17006KT 02/02 A2958 RMK A01 T00240017  RH  095%=      5-min Rain = 0
KBR1 231009Z 17005KT 02/02 A2958 RMK A01 T00240017  RH  095%=      5-min Rain = 0
KBR1 231010Z 17007KT 02/02 A2958 RMK A01 T00240017  RH  095%=      5-min Rain = 0
KBR1 231011Z 17006KT 02/02 A2958 RMK A01 T00240017  RH  095%=      5-min Rain = 0
KBR1 231012Z 17006KT 02/02 A2958 RMK A01 T00240017  RH  095%=      5-min Rain = 0
KBR1 231013Z 17007KT 02/02 A2958 RMK A01 T00240017  RH  095%=      5-min Rain = 0
KBR1 231014Z 17006KT 02/02 A2958 RMK A01 T00240017  RH  095%=      5-min Rain = 0
KBR1 231015Z 16007KT 02/02 A2958 RMK A01 T00240017  RH  095%=      5-min Rain = 0
KBR1 231016Z 17007KT 02/02 A2958 RMK A01 T00240017  RH  095%=      5-min Rain = 0
KBR1 231017Z 17007KT 02/02 A2958 RMK A01 T00240017  RH  095%=      5-min Rain = 0
KBR1 231018Z 17006KT 02/02 A2958 RMK A01 T00240017  RH  095%=      5-min Rain = 0
KBR1 231019Z 17006KT 02/02 A2958 RMK A01 T00240017  RH  096%=      5-min Rain = 0
KBR1 231020Z 16006KT 02/02 A2958 RMK A01 T00240017  RH  096%=      5-min Rain = 0
KBR1 231021Z 17007KT 02/02 A2958 RMK A01 T00240017  RH  096%=      5-min Rain = 0
KBR1 231022Z 17006KT 02/02 A2958 RMK A01 T00240017  RH  096%=      5-min Rain = 0
KBR1 231023Z 17006KT 02/02 A2958 RMK A01 T00240017  RH  096%=      5-min Rain = 0
KBR1 231024Z 17006KT 02/02 A2958 RMK A01 T00240017  RH  096%=      5-min Rain = 0
KBR1 231025Z 17006KT 02/02 A2958 RMK A01 T00240017  RH  096%=      5-min Rain = 0
KBR1 231026Z 17006KT 02/02 A2958 RMK A01 T00240018  RH  096%=      5-min Rain = 0
KBR1 231027Z 17007KT 02/02 A2958 RMK A01 T00240018  RH  096%=      5-min Rain = 0
KBR1 231028Z 16007KT 02/02 A2958 RMK A01 T00240018  RH  096%=      5-min Rain = 0
KBR1 231029Z 17008KT 02/02 A2958 RMK A01 T00240018  RH  096%=      5-min Rain = 0
KBR1 231030Z 17007KT 02/02 A2958 RMK A01 T00240018  RH  096%=      5-min Rain = 0
KBR1 231031Z 17008KT 02/02 A2958 RMK A01 T00240018  RH  096%=      5-min Rain = 0
KBR1 231032Z 16007KT 02/02 A2958 RMK A01 T00240018  RH  096%=      5-min Rain = 0.01
KBR1 231033Z 16007KT 02/02 A2958 RMK A01 T00240018  RH  096%=      5-min Rain = 0
KBR1 231034Z 16006KT 02/02 A2958 RMK A01 T00240018  RH  096%=      5-min Rain = 0
KBR1 231035Z 16007KT 02/02 A2958 RMK A01 T00240018  RH  096%=      5-min Rain = 0
KBR1 231036Z 16006KT 02/02 A2957 RMK A01 T00240018  RH  096%=      5-min Rain = 0
KBR1 231037Z 17007KT 02/02 A2957 RMK A01 T00240018  RH  096%=      5-min Rain = 0
KBR1 231038Z 17006KT 02/02 A2957 RMK A01 T00240018  RH  096%=      5-min Rain = 0
KBR1 231039Z 17005KT 02/02 A2957 RMK A01 T00240018  RH  096%=      5-min Rain = 0
KBR1 231040Z 17006KT 02/02 A2957 RMK A01 T00240019  RH  096%=      5-min Rain = 0
KBR1 231041Z 17006KT 02/02 A2957 RMK A01 T00240019  RH  096%=      5-min Rain = 0
KBR1 231042Z 18007KT 02/02 A2957 RMK A01 T00240019  RH  096%=      5-min Rain = 0
KBR1 231043Z 17006KT 02/02 A2957 RMK A01 T00240019  RH  096%=      5-min Rain = 0
KBR1 231044Z 17007KT 02/02 A2957 RMK A01 T00240019  RH  096%=      5-min Rain = 0
KBR1 231045Z 18007KT 02/02 A2957 RMK A01 T00240019  RH  096%=      5-min Rain = 0
KBR1 231046Z 18008KT 02/02 A2957 RMK A01 T00240019  RH  096%=      5-min Rain = 0
KBR1 231047Z 18008KT 02/02 A2957 RMK A01 T00240019  RH  096%=      5-min Rain = 0
KBR1 231048Z 18008KT 02/02 A2957 RMK A01 T00240018  RH  096%=      5-min Rain = 0
KBR1 231049Z 17008KT 02/02 A2957 RMK A01 T00240019  RH  096%=      5-min Rain = 0
KBR1 231050Z 18006KT 02/02 A2957 RMK A01 T00240019  RH  096%=      5-min Rain = 0
KBR1 231051Z 18008KT 02/02 A2957 RMK A01 T00240019  RH  096%=      5-min Rain = 0
KBR1 231052Z 18008KT 02/02 A2957 RMK A01 T00240019  RH  096%=      5-min Rain = 0
KBR1 231053Z 18008KT 02/02 A2957 RMK A01 T00240019  RH  096%=      5-min Rain = 0.01
KBR1 231054Z 18008KT 02/02 A2957 RMK A01 T00240019  RH  096%=      5-min Rain = 0
KBR1 231055Z 18010KT 02/02 A2957 RMK A01 T00240019  RH  096%=      5-min Rain = 0
KBR1 231056Z 20013KT 02/02 A2957 RMK A01 T00240019  RH  096%=      5-min Rain = 0
KBR1 231057Z 19012KT 02/02 A2957 RMK A01 T00240018  RH  095%=      5-min Rain = 0
KBR1 231058Z 19010KT 03/02 A2956 RMK A01 T00250017  RH  095%=      5-min Rain = 0
KBR1 231059Z 18009KT 03/02 A2956 RMK A01 T00250017  RH  095%=      5-min Rain = 0
KBR1 231100Z 18009KT 03/02 A2956 RMK A01 T00250018  RH  095%=      5-min Rain = 0
KBR1 231101Z 18008KT 03/02 A2956 RMK A01 T00250018  RH  095%=      5-min Rain = 0
KBR1 231102Z 19008KT 03/02 A2956 RMK A01 T00250018  RH  095%=      5-min Rain = 0
KBR1 231103Z 20010KT 03/02 A2956 RMK A01 T00250018  RH  095%=      5-min Rain = 0
KBR1 231104Z 20010KT 03/02 A2956 RMK A01 T00250018  RH  095%=      5-min Rain = 0
KBR1 231105Z 20010KT 03/02 A2956 RMK A01 T00250018  RH  095%=      5-min Rain = 0
KBR1 231106Z 20012KT 03/02 A2956 RMK A01 T00250017  RH  095%=      5-min Rain = 0
KBR1 231107Z 20011KT 03/02 A2956 RMK A01 T00250017  RH  095%=      5-min Rain = 0
KBR1 231108Z 20010KT 03/02 A2956 RMK A01 T00250018  RH  095%=      5-min Rain = 0
KBR1 231109Z 20009KT 03/02 A2956 RMK A01 T00250017  RH  095%=      5-min Rain = 0
KBR1 231110Z 21010KT 03/02 A2956 RMK A01 T00250018  RH  095%=      5-min Rain = 0
KBR1 231111Z 21010KT 03/02 A2955 RMK A01 T00250018  RH  095%=      5-min Rain = 0
KBR1 231112Z 22008KT 03/02 A2955 RMK A01 T00250017  RH  095%=      5-min Rain = 0
KBR1 231113Z 21010KT 03/02 A2955 RMK A01 T00250017  RH  095%=      5-min Rain = 0
KBR1 231114Z 22009KT 03/02 A2955 RMK A01 T00260018  RH  094%=      5-min Rain = 0
KBR1 231115Z 21011KT 03/02 A2955 RMK A01 T00260017  RH  094%=      5-min Rain = 0
KBR1 231116Z 21010KT 03/02 A2955 RMK A01 T00260017  RH  094%=      5-min Rain = 0
KBR1 231117Z 21010KT 03/02 A2955 RMK A01 T00260017  RH  094%=      5-min Rain = 0
KBR1 231118Z 22011KT 03/02 A2955 RMK A01 T00260017  RH  094%=      5-min Rain = 0
KBR1 231119Z 22011KT 03/02 A2955 RMK A01 T00270017  RH  093%=      5-min Rain = 0
KBR1 231120Z 22009G15KT 03/02 A2955 RMK A01 T00270017  RH  093%=      5-min Rain = 0
KBR1 231121Z 22012KT 03/02 A2955 RMK A01 T00270016  RH  093%=      5-min Rain = 0
KBR1 231122Z 22011KT 03/02 A2955 RMK A01 T00270015  RH  092%=      5-min Rain = 0
KBR1 231123Z 23013KT 03/01 A2954 RMK A01 T00270013  RH  091%=      5-min Rain = 0
KBR1 231124Z 23014KT 03/01 A2954 RMK A01 T00270011  RH  089%=      5-min Rain = 0
KBR1 231125Z 23013KT 03/01 A2954 RMK A01 T00270010  RH  089%=      5-min Rain = 0
KBR1 231126Z 23012KT 03/01 A2954 RMK A01 T00280010  RH  088%=      5-min Rain = 0
KBR1 231127Z 24011KT 03/01 A2954 RMK A01 T00270009  RH  088%=      5-min Rain = 0
KBR1 231128Z 24012KT 03/01 A2954 RMK A01 T00260008  RH  088%=      5-min Rain = 0
KBR1 231129Z 24012KT 03/01 A2954 RMK A01 T00260007  RH  088%=      5-min Rain = 0
KBR1 231130Z 24010KT 03/01 A2954 RMK A01 T00250006  RH  087%=      5-min Rain = 0
KBR1 231131Z 24011KT 02/01 A2954 RMK A01 T00240005  RH  087%=      5-min Rain = 0
KBR1 231132Z 24011KT 02/00 A2954 RMK A01 T00240004  RH  087%=      5-min Rain = 0
KBR1 231133Z 24011KT 02/00 A2954 RMK A01 T00230004  RH  087%=      5-min Rain = 0
KBR1 231134Z 24012KT 02/00 A2954 RMK A01 T00230003  RH  087%=      5-min Rain = 0
KBR1 231135Z 24011KT 02/00 A2954 RMK A01 T00230002  RH  086%=      5-min Rain = 0
KBR1 231136Z 23011KT 02/00 A2954 RMK A01 T00220001  RH  086%=      5-min Rain = 0
KBR1 231137Z 23009KT 02/00 A2953 RMK A01 T00220001  RH  086%=      5-min Rain = 0
KBR1 231138Z 23009KT 02/00 A2953 RMK A01 T00200001  RH  087%=      5-min Rain = 0
KBR1 231139Z 23010KT 02/00 A2953 RMK A01 T00190001  RH  087%=      5-min Rain = 0
KBR1 231140Z 23010KT 02/00 A2954 RMK A01 T00190000  RH  088%=      5-min Rain = 0
KBR1 231141Z 23011KT 02/00 A2953 RMK A01 T00180000  RH  088%=      5-min Rain = 0
KBR1 231142Z 23009KT 02/00 A2953 RMK A01 T001800-0  RH  088%=      5-min Rain = 0
KBR1 231143Z 23010KT 02/M00 A2953 RMK A01 T00171001  RH  088%=      5-min Rain = 0
KBR1 231144Z 23009KT 02/M00 A2953 RMK A01 T00171001  RH  088%=      5-min Rain = 0
KBR1 231145Z 23011KT 02/M00 A2953 RMK A01 T00151002  RH  088%=      5-min Rain = 0
KBR1 231146Z 23012KT 02/M00 A2953 RMK A01 T00151004  RH  087%=      5-min Rain = 0
KBR1 231147Z 23011KT 02/M01 A2953 RMK A01 T00161005  RH  086%=      5-min Rain = 0
KBR1 231148Z 23011KT 02/M01 A2953 RMK A01 T00161006  RH  085%=      5-min Rain = 0
KBR1 231149Z 23012KT 02/M01 A2953 RMK A01 T00151007  RH  085%=      5-min Rain = 0
KBR1 231150Z 24014KT 02/M01 A2953 RMK A01 T00151011  RH  083%=      5-min Rain = 0
KBR1 231151Z 24014KT 02/M01 A2953 RMK A01 T00171013  RH  081%=      5-min Rain = 0
KBR1 231152Z 24013KT 02/M02 A2953 RMK A01 T00171016  RH  079%=      5-min Rain = 0
KBR1 231153Z 23012KT 02/M02 A2953 RMK A01 T00171016  RH  079%=      5-min Rain = 0
KBR1 231154Z 24012KT 02/M02 A2953 RMK A01 T00161017  RH  079%=      5-min Rain = 0
KBR1 231155Z 24012KT 02/M02 A2953 RMK A01 T00151017  RH  079%=      5-min Rain = 0
KBR1 231156Z 24011KT 01/M02 A2953 RMK A01 T00141018  RH  080%=      5-min Rain = 0
KBR1 231157Z 23010KT 01/M02 A2953 RMK A01 T00131018  RH  080%=      5-min Rain = 0
KBR1 231158Z 23010KT 01/M02 A2953 RMK A01 T00121018  RH  080%=      5-min Rain = 0
KBR1 231159Z 24011KT 01/M02 A2953 RMK A01 T00111019  RH  081%=      5-min Rain = 0
KBR1 231200Z 23009KT 01/M02 A2954 RMK A01 T00101019  RH  081%=      5-min Rain = 0
KBR1 231201Z 23010KT 01/M02 A2954 RMK A01 T00091020  RH  081%=      5-min Rain = 0
KBR1 231202Z 23009KT 01/M02 A2954 RMK A01 T00091020  RH  081%=      5-min Rain = 0
KBR1 231203Z 23009KT 01/M02 A2954 RMK A01 T00081020  RH  081%=      5-min Rain = 0
KBR1 231204Z 23009KT 01/M02 A2954 RMK A01 T00081019  RH  082%=      5-min Rain = 0
KBR1 231205Z 23008KT 01/M02 A2954 RMK A01 T00061020  RH  083%=      5-min Rain = 0
KBR1 231206Z 23008KT 01/M02 A2953 RMK A01 T00051019  RH  084%=      5-min Rain = 0
KBR1 231207Z 23008KT 01/M02 A2953 RMK A01 T00051019  RH  084%=      5-min Rain = 0
KBR1 231208Z 22008KT 01/M02 A2953 RMK A01 T00051019  RH  084%=      5-min Rain = 0
KBR1 231209Z 22009KT 00/M02 A2953 RMK A01 T00041019  RH  084%=      5-min Rain = 0
KBR1 231210Z 22008KT 01/M02 A2953 RMK A01 T00051019  RH  084%=      5-min Rain = 0
KBR1 231211Z 22007KT 00/M02 A2953 RMK A01 T00041019  RH  084%=      5-min Rain = 0
KBR1 231212Z 22007KT 00/M02 A2953 RMK A01 T00041019  RH  084%=      5-min Rain = 0
KBR1 231213Z 22007KT 00/M02 A2953 RMK A01 T00041019  RH  085%=      5-min Rain = 0
KBR1 231214Z 22007KT 00/M02 A2953 RMK A01 T00041019  RH  085%=      5-min Rain = 0
KBR1 231215Z 22007KT 00/M02 A2953 RMK A01 T00031018  RH  086%=      5-min Rain = 0
KBR1 231216Z 21008KT 00/M02 A2953 RMK A01 T00031018  RH  086%=      5-min Rain = 0
KBR1 231217Z 21008KT 00/M02 A2953 RMK A01 T00021019  RH  086%=      5-min Rain = 0
KBR1 231218Z 21010KT 00/M02 A2953 RMK A01 T00031019  RH  086%=      5-min Rain = 0
KBR1 231219Z 21009KT 00/M02 A2953 RMK A01 T00031019  RH  085%=      5-min Rain = 0
KBR1 231220Z 21010KT 00/M02 A2953 RMK A01 T00031019  RH  085%=      5-min Rain = 0
KBR1 231221Z 21010KT 00/M02 A2953 RMK A01 T00031019  RH  085%=      5-min Rain = 0
KBR1 231222Z 20010KT 00/M02 A2953 RMK A01 T00031019  RH  085%=      5-min Rain = 0
KBR1 231223Z 20010KT 00/M02 A2953 RMK A01 T00031019  RH  085%=      5-min Rain = 0
KBR1 231224Z 20010KT 00/M02 A2953 RMK A01 T00031019  RH  085%=      5-min Rain = 0
KBR1 231225Z 20011KT 00/M02 A2953 RMK A01 T00031020  RH  084%=      5-min Rain = 0
KBR1 231226Z 20011KT 00/M02 A2953 RMK A01 T00031021  RH  084%=      5-min Rain = 0
KBR1 231227Z 21012KT 00/M02 A2952 RMK A01 T00031022  RH  083%=      5-min Rain = 0
KBR1 231228Z 21012KT 00/M02 A2953 RMK A01 T00041022  RH  083%=      5-min Rain = 0
KBR1 231229Z 21011KT 00/M02 A2952 RMK A01 T00041022  RH  083%=      5-min Rain = 0
KBR1 231230Z 21011KT 00/M02 A2952 RMK A01 T00041022  RH  083%=      5-min Rain = 0
KBR1 231231Z 21011KT 00/M02 A2952 RMK A01 T00041023  RH  083%=      5-min Rain = 0
KBR1 231232Z 21010KT 00/M02 A2953 RMK A01 T00031023  RH  083%=      5-min Rain = 0
KBR1 231233Z 21012KT 00/M02 A2952 RMK A01 T00031023  RH  083%=      5-min Rain = 0
KBR1 231234Z 21011KT 00/M02 A2952 RMK A01 T00031023  RH  083%=      5-min Rain = 0
KBR1 231235Z 21012KT 00/M02 A2952 RMK A01 T00031024  RH  082%=      5-min Rain = 0
KBR1 231236Z 21011KT 00/M03 A2952 RMK A01 T00031025  RH  082%=      5-min Rain = 0
KBR1 231237Z 21010KT 00/M03 A2952 RMK A01 T00031025  RH  082%=      5-min Rain = 0
KBR1 231238Z 21010KT 00/M03 A2952 RMK A01 T00021025  RH  082%=      5-min Rain = 0
KBR1 231239Z 21010KT 00/M03 A2952 RMK A01 T00021025  RH  082%=      5-min Rain = 0
KBR1 231240Z 21010KT 00/M03 A2952 RMK A01 T00011025  RH  082%=      5-min Rain = 0
KBR1 231241Z 21010KT 00/M03 A2952 RMK A01 T00011025  RH  083%=      5-min Rain = 0
KBR1 231242Z 22010KT 00/M03 A2952 RMK A01 T00011025  RH  083%=      5-min Rain = 0
KBR1 231243Z 22010KT 00/03 A2952 RMK A01 T00000-25  RH  083%=      5-min Rain = 0
KBR1 231244Z 22010KT 00/03 A2952 RMK A01 T00000-26  RH  083%=      5-min Rain = 0
KBR1 231245Z 22010KT 00/03 A2952 RMK A01 T00000-26  RH  083%=      5-min Rain = 0
KBR1 231246Z 22011KT 00/03 A2952 RMK A01 T00-00-26  RH  083%=      5-min Rain = 0
KBR1 231247Z 21011KT 00/03 A2952 RMK A01 T00-00-27  RH  082%=      5-min Rain = 0
KBR1 231248Z 21011KT 00/03 A2952 RMK A01 T00000-27  RH  082%=      5-min Rain = 0
KBR1 231249Z 21011KT 00/03 A2952 RMK A01 T00000-27  RH  082%=      5-min Rain = 0
KBR1 231250Z 21010KT 00/03 A2952 RMK A01 T00000-27  RH  082%=      5-min Rain = 0
KBR1 231251Z 21010KT 00/03 A2952 RMK A01 T00-00-28  RH  082%=      5-min Rain = 0
KBR1 231252Z 21008KT 00/03 A2952 RMK A01 T00-00-28  RH  082%=      5-min Rain = 0
KBR1 231253Z 21009KT M00/M03 A2952 RMK A01 T10021028  RH  082%=      5-min Rain = 0
KBR1 231254Z 21009KT M00/M03 A2952 RMK A01 T10021029  RH  082%=      5-min Rain = 0
KBR1 231255Z 21009KT M00/M03 A2952 RMK A01 T10021029  RH  082%=      5-min Rain = 0
KBR1 231256Z 21011KT M00/M03 A2952 RMK A01 T10021030  RH  081%=      5-min Rain = 0
KBR1 231257Z 21010KT M00/M03 A2952 RMK A01 T10011030  RH  081%=      5-min Rain = 0
KBR1 231258Z 21011KT M00/M03 A2952 RMK A01 T10011030  RH  081%=      5-min Rain = 0
KBR1 231259Z 21010KT M00/M03 A2952 RMK A01 T10011030  RH  081%=      5-min Rain = 0
KBR1 231300Z 20012KT M00/M03 A2952 RMK A01 T10021030  RH  081%=      5-min Rain = 0
KBR1 231301Z 20012KT M00/M03 A2951 RMK A01 T10021031  RH  081%=      5-min Rain = 0
KBR1 231302Z 21011KT M00/M03 A2951 RMK A01 T10021031  RH  081%=      5-min Rain = 0
KBR1 231303Z 21010KT M00/M03 A2951 RMK A01 T10021031  RH  081%=      5-min Rain = 0
KBR1 231304Z 21011KT M00/M03 A2951 RMK A01 T10021031  RH  081%=      5-min Rain = 0
KBR1 231305Z 21011KT M00/M03 A2952 RMK A01 T10021031  RH  081%=      5-min Rain = 0
KBR1 231306Z 21011KT M00/M03 A2952 RMK A01 T10021032  RH  080%=      5-min Rain = 0
KBR1 231307Z 22011KT M00/M03 A2952 RMK A01 T10021032  RH  080%=      5-min Rain = 0
KBR1 231308Z 22011KT M00/M03 A2952 RMK A01 T10021032  RH  080%=      5-min Rain = 0
KBR1 231309Z 22012KT M00/M03 A2952 RMK A01 T10031032  RH  080%=      5-min Rain = 0
KBR1 231310Z 22011KT M00/M03 A2952 RMK A01 T10031033  RH  080%=      5-min Rain = 0
KBR1 231311Z 22013KT M00/M03 A2952 RMK A01 T10031033  RH  080%=      5-min Rain = 0
KBR1 231312Z 22011KT M00/M03 A2952 RMK A01 T10031034  RH  080%=      5-min Rain = 0
KBR1 231313Z 22011KT M00/M03 A2953 RMK A01 T10031033  RH  080%=      5-min Rain = 0
KBR1 231314Z 23011KT M00/M03 A2953 RMK A01 T10031033  RH  080%=      5-min Rain = 0
KBR1 231315Z 23010KT M00/M03 A2953 RMK A01 T10031033  RH  080%=      5-min Rain = 0
KBR1 231316Z 23010KT M00/M03 A2953 RMK A01 T10031033  RH  080%=      5-min Rain = 0
KBR1 231317Z 23010KT M00/M03 A2953 RMK A01 T10031033  RH  080%=      5-min Rain = 0
KBR1 231318Z 23009KT M00/M03 A2953 RMK A01 T10031033  RH  080%=      5-min Rain = 0
KBR1 231319Z 23010KT M00/M03 A2952 RMK A01 T10031033  RH  080%=      5-min Rain = 0
KBR1 231320Z 23009KT M00/M03 A2952 RMK A01 T10031033  RH  080%=      5-min Rain = 0
KBR1 231321Z 23009KT M00/M03 A2952 RMK A01 T10041033  RH  080%=      5-min Rain = 0
KBR1 231322Z 23009KT M00/M03 A2952 RMK A01 T10041033  RH  080%=      5-min Rain = 0
KBR1 231323Z 23009KT M00/M03 A2952 RMK A01 T10041034  RH  080%=      5-min Rain = 0
KBR1 231324Z 23010KT M01/M03 A2952 RMK A01 T10051034  RH  080%=      5-min Rain = 0
KBR1 231325Z 24009KT M01/M03 A2953 RMK A01 T10051034  RH  080%=      5-min Rain = 0
KBR1 231326Z 24009KT M01/M03 A2953 RMK A01 T10051034  RH  081%=      5-min Rain = 0
KBR1 231327Z 23010KT M01/M03 A2952 RMK A01 T10051034  RH  081%=      5-min Rain = 0
KBR1 231328Z 24009KT M01/M03 A2952 RMK A01 T10051034  RH  081%=      5-min Rain = 0
KBR1 231329Z 24010KT M01/M04 A2952 RMK A01 T10051035  RH  080%=      5-min Rain = 0
KBR1 231330Z 24009KT M01/M03 A2952 RMK A01 T10051034  RH  081%=      5-min Rain = 0
KBR1 231331Z 24009KT M01/M03 A2953 RMK A01 T10051034  RH  081%=      5-min Rain = 0
KBR1 231332Z 25009KT M01/M03 A2953 RMK A01 T10061034  RH  081%=      5-min Rain = 0
KBR1 231333Z 25009KT M01/M03 A2953 RMK A01 T10061033  RH  082%=      5-min Rain = 0
KBR1 231334Z 25009KT M01/M03 A2953 RMK A01 T10061033  RH  082%=      5-min Rain = 0
KBR1 231335Z 26010KT M01/M03 A2953 RMK A01 T10061033  RH  082%=      5-min Rain = 0
KBR1 231336Z 25010KT M01/M03 A2953 RMK A01 T10061034  RH  082%=      5-min Rain = 0
KBR1 231337Z 26009KT M01/M03 A2953 RMK A01 T10061034  RH  082%=      5-min Rain = 0
KBR1 231338Z 26008KT M01/M03 A2953 RMK A01 T10061034  RH  082%=      5-min Rain = 0
KBR1 231339Z 26008KT M01/M03 A2953 RMK A01 T10061033  RH  082%=      5-min Rain = 0
KBR1 231340Z 27007KT M01/M03 A2953 RMK A01 T10071034  RH  082%=      5-min Rain = 0
KBR1 231341Z 28009KT M01/M03 A2954 RMK A01 T10071032  RH  083%=      5-min Rain = 0
KBR1 231342Z 28010KT M01/M03 A2954 RMK A01 T10071031  RH  084%=      5-min Rain = 0
KBR1 231343Z 28010KT M01/M03 A2954 RMK A01 T10061031  RH  083%=      5-min Rain = 0
KBR1 231344Z 28012KT M01/M03 A2954 RMK A01 T10051030  RH  083%=      5-min Rain = 0
KBR1 231345Z 28012KT M00/M03 A2954 RMK A01 T10041029  RH  083%=      5-min Rain = 0
KBR1 231346Z 28011KT M00/M03 A2954 RMK A01 T10031028  RH  083%=      5-min Rain = 0
KBR1 231347Z 28011KT M00/M03 A2954 RMK A01 T10021027  RH  084%=      5-min Rain = 0
KBR1 231348Z 28011KT M00/M03 A2954 RMK A01 T10021026  RH  084%=      5-min Rain = 0
KBR1 231349Z 28012KT M00/M03 A2954 RMK A01 T10021025  RH  084%=      5-min Rain = 0
KBR1 231350Z 28012KT M00/M03 A2954 RMK A01 T10021025  RH  084%=      5-min Rain = 0
KBR1 231351Z 28016KT M00/M02 A2954 RMK A01 T10021024  RH  085%=      5-min Rain = 0
KBR1 231352Z 28014KT 00/02 A2954 RMK A01 T00-00-22  RH  085%=      5-min Rain = 0
KBR1 231353Z 29018KT 00/02 A2954 RMK A01 T00000-21  RH  086%=      5-min Rain = 0
KBR1 231354Z 30016KT 00/M02 A2954 RMK A01 T00021019  RH  086%=      5-min Rain = 0
KBR1 231355Z 30013KT 00/M02 A2954 RMK A01 T00021018  RH  086%=      5-min Rain = 0
KBR1 231356Z 31016KT 00/M02 A2955 RMK A01 T00021017  RH  087%=      5-min Rain = 0
KBR1 231357Z 31015G20KT 00/M02 A2955 RMK A01 T00031016  RH  087%=      5-min Rain = 0
KBR1 231358Z 30018KT 00/M02 A2955 RMK A01 T00031015  RH  088%=      5-min Rain = 0
KBR1 231359Z 30017KT 00/M01 A2955 RMK A01 T00031014  RH  088%=      5-min Rain = 0
KBR1 231400Z 30017KT 00/M01 A2955 RMK A01 T00031014  RH  089%=      5-min Rain = 0
KBR1 231401Z 30016KT 00/M01 A2955 RMK A01 T00031013  RH  089%=      5-min Rain = 0
KBR1 231402Z 30017KT 00/M01 A2955 RMK A01 T00031013  RH  089%=      5-min Rain = 0
KBR1 231403Z 31015G20KT 00/M01 A2955 RMK A01 T00021013  RH  089%=      5-min Rain = 0
KBR1 231404Z 31018KT 00/M01 A2955 RMK A01 T00021014  RH  089%=      5-min Rain = 0
KBR1 231405Z 30019KT 00/M02 A2955 RMK A01 T00031015  RH  088%=      5-min Rain = 0
KBR1 231406Z 31018KT 00/M02 A2955 RMK A01 T00041016  RH  087%=      5-min Rain = 0
KBR1 231407Z 30017KT 00/M02 A2956 RMK A01 T00041017  RH  086%=      5-min Rain = 0
KBR1 231408Z 31014KT 00/M02 A2956 RMK A01 T00041017  RH  086%=      5-min Rain = 0
KBR1 231409Z 31016KT 00/M02 A2956 RMK A01 T00041016  RH  086%=      5-min Rain = 0
KBR1 231410Z 30018G23KT 00/M02 A2956 RMK A01 T00041017  RH  086%=      5-min Rain = 0
KBR1 231411Z 30014KT 00/M02 A2956 RMK A01 T00041019  RH  085%=      5-min Rain = 0
KBR1 231412Z 31017KT 00/M02 A2956 RMK A01 T00041018  RH  085%=      5-min Rain = 0
KBR1 231413Z 31017KT 00/M02 A2956 RMK A01 T00041019  RH  085%=      5-min Rain = 0
KBR1 231414Z 30018KT 00/M02 A2956 RMK A01 T00041019  RH  084%=      5-min Rain = 0
KBR1 231415Z 30017KT 01/M02 A2956 RMK A01 T00051019  RH  084%=      5-min Rain = 0
KBR1 231416Z 30017G23KT 01/M02 A2956 RMK A01 T00051020  RH  084%=      5-min Rain = 0
KBR1 231417Z 30017KT 01/M02 A2956 RMK A01 T00051020  RH  084%=      5-min Rain = 0
KBR1 231418Z 30020KT 01/M02 A2956 RMK A01 T00051020  RH  083%=      5-min Rain = 0
KBR1 231419Z 30017KT 01/M02 A2956 RMK A01 T00051020  RH  083%=      5-min Rain = 0
KBR1 231420Z 30016KT 01/M02 A2956 RMK A01 T00061019  RH  083%=      5-min Rain = 0
KBR1 231421Z 31019KT 01/M02 A2957 RMK A01 T00061019  RH  083%=      5-min Rain = 0
KBR1 231422Z 30019G24KT 01/M02 A2957 RMK A01 T00061020  RH  083%=      5-min Rain = 0
KBR1 231423Z 30018KT 01/M02 A2957 RMK A01 T00071020  RH  083%=      5-min Rain = 0
KBR1 231424Z 30017KT 01/M02 A2957 RMK A01 T00071019  RH  083%=      5-min Rain = 0
KBR1 231425Z 30020G26KT 01/M02 A2957 RMK A01 T00071018  RH  084%=      5-min Rain = 0
KBR1 231426Z 30022KT 01/M02 A2957 RMK A01 T00061019  RH  083%=      5-min Rain = 0
KBR1 231427Z 31021G27KT 01/M02 A2957 RMK A01 T00071019  RH  083%=      5-min Rain = 0
KBR1 231428Z 30023G28KT 01/M02 A2957 RMK A01 T00061019  RH  083%=      5-min Rain = 0
KBR1 231429Z 30021KT 01/M02 A2957 RMK A01 T00061020  RH  083%=      5-min Rain = 0
KBR1 231430Z 30021KT 01/M02 A2957 RMK A01 T00061019  RH  083%=      5-min Rain = 0
KBR1 231431Z 30018G24KT 01/M02 A2958 RMK A01 T00061018  RH  084%=      5-min Rain = 0
KBR1 231432Z 30019KT 01/M02 A2958 RMK A01 T00061017  RH  084%=      5-min Rain = 0
KBR1 231433Z 31022KT 01/M02 A2958 RMK A01 T00061017  RH  085%=      5-min Rain = 0
KBR1 231434Z 30022G27KT 01/M02 A2958 RMK A01 T00061018  RH  084%=      5-min Rain = 0
KBR1 231435Z 30019G24KT 01/M02 A2958 RMK A01 T00051018  RH  085%=      5-min Rain = 0
KBR1 231436Z 30017KT 01/M02 A2958 RMK A01 T00051017  RH  086%=      5-min Rain = 0
KBR1 231437Z 30023KT 01/M02 A2958 RMK A01 T00051017  RH  086%=      5-min Rain = 0
KBR1 231438Z 30023KT 00/M02 A2959 RMK A01 T00041018  RH  085%=      5-min Rain = 0
KBR1 231439Z 30022G27KT 00/M02 A2959 RMK A01 T00041019  RH  085%=      5-min Rain = 0
KBR1 231440Z 30019G27KT 00/M02 A2959 RMK A01 T00041019  RH  085%=      5-min Rain = 0
KBR1 231441Z 30021G28KT 00/M02 A2959 RMK A01 T00041018  RH  086%=      5-min Rain = 0
KBR1 231442Z 30023G29KT 00/M02 A2959 RMK A01 T00041018  RH  085%=      5-min Rain = 0
KBR1 231443Z 30021G26KT 00/M02 A2959 RMK A01 T00041019  RH  085%=      5-min Rain = 0
KBR1 231444Z 30022KT 00/M02 A2959 RMK A01 T00041018  RH  085%=      5-min Rain = 0
KBR1 231445Z 30023KT 00/M02 A2959 RMK A01 T00041019  RH  085%=      5-min Rain = 0
KBR1 231446Z 29024G29KT 00/M02 A296 RMK A01 T00041019  RH  085%=      5-min Rain = 0
KBR1 231447Z 29022G29KT 00/M02 A296 RMK A01 T00041019  RH  084%=      5-min Rain = 0
KBR1 231448Z 30021G26KT 01/M02 A296 RMK A01 T00051018  RH  085%=      5-min Rain = 0
KBR1 231449Z 30021G26KT 01/M02 A296 RMK A01 T00051018  RH  085%=      5-min Rain = 0
KBR1 231450Z 30021G30KT 01/M02 A296 RMK A01 T00051017  RH  085%=      5-min Rain = 0
KBR1 231451Z 30025KT 01/M02 A296 RMK A01 T00061018  RH  084%=      5-min Rain = 0
KBR1 231452Z 29023KT 01/M02 A296 RMK A01 T00061018  RH  084%=      5-min Rain = 0
KBR1 231453Z 30022G28KT 01/M02 A296 RMK A01 T00061018  RH  084%=      5-min Rain = 0
KBR1 231454Z 30022KT 01/M02 A2961 RMK A01 T00061017  RH  085%=      5-min Rain = 0
KBR1 231455Z 29023G29KT 01/M02 A2961 RMK A01 T00071019  RH  083%=      5-min Rain = 0
KBR1 231456Z 30022KT 01/M02 A2961 RMK A01 T00071019  RH  083%=      5-min Rain = 0
KBR1 231457Z 30020KT 01/M02 A2961 RMK A01 T00081018  RH  083%=      5-min Rain = 0
KBR1 231458Z 30019G24KT 01/M02 A2961 RMK A01 T00081017  RH  083%=      5-min Rain = 0
KBR1 231459Z 30019G24KT 01/M02 A2961 RMK A01 T00081016  RH  084%=      5-min Rain = 0
KBR1 231500Z 30022KT 01/M02 A2961 RMK A01 T00091017  RH  083%=      5-min Rain = 0
KBR1 231501Z 30026G31KT 01/M02 A2961 RMK A01 T00091020  RH  081%=      5-min Rain = 0
KBR1 231502Z 30020G27KT 01/M02 A2961 RMK A01 T00091020  RH  081%=      5-min Rain = 0
KBR1 231503Z 30028KT 01/M02 A2962 RMK A01 T00091021  RH  080%=      5-min Rain = 0
KBR1 231504Z 30026G32KT 01/M03 A2962 RMK A01 T00081025  RH  079%=      5-min Rain = 0
KBR1 231505Z 30025G30KT 01/M03 A2962 RMK A01 T00081025  RH  079%=      5-min Rain = 0
KBR1 231506Z 29021G27KT 01/M02 A2962 RMK A01 T00081023  RH  079%=      5-min Rain = 0
KBR1 231507Z 30024KT 01/M02 A2962 RMK A01 T00091022  RH  080%=      5-min Rain = 0
KBR1 231508Z 30024KT 01/M02 A2962 RMK A01 T00091023  RH  079%=      5-min Rain = 0
KBR1 231509Z 30020KT 01/M02 A2962 RMK A01 T00091023  RH  079%=      5-min Rain = 0
KBR1 231510Z 30020G26KT 01/M02 A2962 RMK A01 T00091020  RH  081%=      5-min Rain = 0
KBR1 231511Z 30026KT 01/M02 A2962 RMK A01 T00091021  RH  080%=      5-min Rain = 0
KBR1 231512Z 30025G30KT 01/M02 A2962 RMK A01 T00101022  RH  079%=      5-min Rain = 0
KBR1 231513Z 30024G30KT 01/M02 A2963 RMK A01 T00111022  RH  079%=      5-min Rain = 0
KBR1 231514Z 30023KT 01/M02 A2963 RMK A01 T00111020  RH  080%=      5-min Rain = 0
KBR1 231515Z 30024G34KT 01/M02 A2963 RMK A01 T00121020  RH  079%=      5-min Rain = 0
KBR1 231516Z 30018KT 01/M02 A2963 RMK A01 T00121019  RH  080%=      5-min Rain = 0
KBR1 231517Z 30021G27KT 01/M02 A2963 RMK A01 T00111018  RH  081%=      5-min Rain = 0
KBR1 231518Z 30021KT 01/M02 A2963 RMK A01 T00111020  RH  080%=      5-min Rain = 0
KBR1 231519Z 30020KT 01/M02 A2964 RMK A01 T00111020  RH  080%=      5-min Rain = 0
KBR1 231520Z 31021KT 01/M02 A2964 RMK A01 T00111020  RH  080%=      5-min Rain = 0
KBR1 231521Z 30023KT 01/M02 A2964 RMK A01 T00111021  RH  079%=      5-min Rain = 0
KBR1 231522Z 30021KT 01/M02 A2964 RMK A01 T00111021  RH  079%=      5-min Rain = 0
KBR1 231523Z 30022G27KT 01/M02 A2964 RMK A01 T00101021  RH  080%=      5-min Rain = 0
KBR1 231524Z 30023G28KT 01/M02 A2964 RMK A01 T00101021  RH  080%=      5-min Rain = 0
KBR1 231525Z 30026KT 01/M02 A2964 RMK A01 T00101022  RH  079%=      5-min Rain = 0
KBR1 231526Z 30026G33KT 01/M02 A2965 RMK A01 T00091024  RH  079%=      5-min Rain = 0
KBR1 231527Z 30024G29KT 01/M02 A2965 RMK A01 T00091024  RH  078%=      5-min Rain = 0
KBR1 231528Z 31022G29KT 01/M02 A2965 RMK A01 T00091023  RH  079%=      5-min Rain = 0
KBR1 231529Z 31024KT 01/M02 A2965 RMK A01 T00091023  RH  079%=      5-min Rain = 0
KBR1 231530Z 31025G30KT 01/M03 A2965 RMK A01 T00081025  RH  079%=      5-min Rain = 0
KBR1 231531Z 31023G29KT 01/M03 A2965 RMK A01 T00081025  RH  079%=      5-min Rain = 0
KBR1 231532Z 31023G30KT 01/M03 A2965 RMK A01 T00081026  RH  078%=      5-min Rain = 0
KBR1 231533Z 31020G30KT 01/M03 A2965 RMK A01 T00081026  RH  078%=      5-min Rain = 0
KBR1 231534Z 31025G30KT 01/M03 A2965 RMK A01 T00081025  RH  079%=      5-min Rain = 0
KBR1 231535Z 31026G31KT 01/M03 A2965 RMK A01 T00081026  RH  078%=      5-min Rain = 0
KBR1 231536Z 31026G33KT 01/M03 A2965 RMK A01 T00081025  RH  078%=      5-min Rain = 0
KBR1 231537Z 31027KT 01/M03 A2965 RMK A01 T00081025  RH  078%=      5-min Rain = 0
KBR1 231538Z 31026G34KT 01/M03 A2965 RMK A01 T00081025  RH  079%=      5-min Rain = 0
KBR1 231539Z 31029KT 01/M02 A2965 RMK A01 T00071024  RH  079%=      5-min Rain = 0
KBR1 231540Z 31027G32KT 01/M02 A2965 RMK A01 T00071024  RH  080%=      5-min Rain = 0
KBR1 231541Z 32031G39KT 01/M02 A2966 RMK A01 T00071024  RH  080%=      5-min Rain = 0
KBR1 231542Z 32030G37KT 01/M03 A2966 RMK A01 T00071025  RH  079%=      5-min Rain = 0
KBR1 231543Z 31025G31KT 01/M02 A2966 RMK A01 T00071024  RH  080%=      5-min Rain = 0
KBR1 231544Z 31032G40KT 01/M02 A2966 RMK A01 T00071024  RH  080%=      5-min Rain = 0
KBR1 231545Z 31028G34KT 01/M03 A2966 RMK A01 T00071025  RH  080%=      5-min Rain = 0
KBR1 231546Z 32027G34KT 01/M02 A2966 RMK A01 T00061023  RH  081%=      5-min Rain = 0
KBR1 231547Z 32030KT 01/M02 A2966 RMK A01 T00061023  RH  081%=      5-min Rain = 0
KBR1 231548Z 31032KT 01/M02 A2966 RMK A01 T00051024  RH  081%=      5-min Rain = 0
KBR1 231549Z 32028G34KT 01/M02 A2966 RMK A01 T00051023  RH  081%=      5-min Rain = 0
KBR1 231550Z 32027G37KT 01/M02 A2966 RMK A01 T00051022  RH  083%=      5-min Rain = 0
KBR1 231551Z 32033KT 00/M02 A2966 RMK A01 T00041022  RH  083%=      5-min Rain = 0
KBR1 231552Z 32028KT 00/M02 A2966 RMK A01 T00041022  RH  083%=      5-min Rain = 0
KBR1 231553Z 32028G34KT 00/M02 A2966 RMK A01 T00031021  RH  084%=      5-min Rain = 0
KBR1 231554Z 32027G36KT 00/M02 A2967 RMK A01 T00031020  RH  085%=      5-min Rain = 0
KBR1 231555Z 32032G37KT 00/M02 A2967 RMK A01 T00031020  RH  085%=      5-min Rain = 0
KBR1 231556Z 32027G33KT 00/M02 A2967 RMK A01 T00021021  RH  085%=      5-min Rain = 0
KBR1 231557Z 32029KT 00/M02 A2967 RMK A01 T00011020  RH  086%=      5-min Rain = 0
KBR1 231558Z 32025KT 00/M02 A2967 RMK A01 T00011019  RH  086%=      5-min Rain = 0
KBR1 231559Z 32027G34KT 00/M02 A2967 RMK A01 T00011018  RH  087%=      5-min Rain = 0
KBR1 231600Z 32031G37KT 00/M02 A2967 RMK A01 T00011018  RH  087%=      5-min Rain = 0
KBR1 231601Z 32031G39KT 00/M02 A2968 RMK A01 T00011018  RH  087%=      5-min Rain = 0
KBR1 231602Z 32029G37KT 00/M02 A2968 RMK A01 T00011018  RH  087%=      5-min Rain = 0
KBR1 231603Z 32033G43KT 00/M02 A2968 RMK A01 T00011018  RH  088%=      5-min Rain = 0
KBR1 231604Z 32030G37KT 00/M02 A2968 RMK A01 T00011019  RH  087%=      5-min Rain = 0
KBR1 231605Z 32025G31KT 00/M02 A2968 RMK A01 T00021017  RH  087%=      5-min Rain = 0
KBR1 231606Z 32024G32KT 00/M02 A2968 RMK A01 T00031015  RH  088%=      5-min Rain = 0
KBR1 231607Z 32031KT 00/M02 A2968 RMK A01 T00041015  RH  087%=      5-min Rain = 0
KBR1 231608Z 32028G33KT 00/M02 A2969 RMK A01 T00041016  RH  086%=      5-min Rain = 0
KBR1 231609Z 32033G39KT 01/M02 A2969 RMK A01 T00051017  RH  085%=      5-min Rain = 0
KBR1 231610Z 32027G33KT 01/M02 A2969 RMK A01 T00051018  RH  085%=      5-min Rain = 0
KBR1 231611Z 32028KT 01/M02 A2969 RMK A01 T00061017  RH  085%=      5-min Rain = 0
KBR1 231612Z 32033KT 01/M02 A2969 RMK A01 T00061017  RH  085%=      5-min Rain = 0
KBR1 231613Z 32029G34KT 01/M02 A2969 RMK A01 T00061018  RH  084%=      5-min Rain = 0
KBR1 231614Z 32028KT 01/M02 A2969 RMK A01 T00061018  RH  084%=      5-min Rain = 0
KBR1 231615Z 32028G33KT 01/M02 A297 RMK A01 T00061017  RH  085%=      5-min Rain = 0
KBR1 231616Z 32028G34KT 01/M02 A297 RMK A01 T00061017  RH  084%=      5-min Rain = 0
KBR1 231617Z 33025KT 01/M02 A297 RMK A01 T00071017  RH  084%=      5-min Rain = 0
KBR1 231618Z 32030G35KT 01/M02 A297 RMK A01 T00081016  RH  084%=      5-min Rain = 0
KBR1 231619Z 32027KT 01/M02 A297 RMK A01 T00091016  RH  083%=      5-min Rain = 0
KBR1 231620Z 33024G31KT 01/M02 A297 RMK A01 T00091015  RH  083%=      5-min Rain = 0
KBR1 231621Z 32029G35KT 01/M01 A2971 RMK A01 T00101013  RH  084%=      5-min Rain = 0
KBR1 231622Z 32030G36KT 01/M02 A2971 RMK A01 T00111017  RH  082%=      5-min Rain = 0
KBR1 231623Z 32025G31KT 01/M01 A2971 RMK A01 T00111014  RH  084%=      5-min Rain = 0
KBR1 231624Z 32030G38KT 01/M02 A2971 RMK A01 T00111015  RH  083%=      5-min Rain = 0
KBR1 231625Z 32032KT 01/M02 A2971 RMK A01 T00111017  RH  082%=      5-min Rain = 0
KBR1 231626Z 33024G30KT 01/M02 A2972 RMK A01 T00101017  RH  082%=      5-min Rain = 0
KBR1 231627Z 33027G32KT 01/M01 A2972 RMK A01 T00111014  RH  084%=      5-min Rain = 0
KBR1 231628Z 33026G32KT 01/M02 A2972 RMK A01 T00111015  RH  082%=      5-min Rain = 0
KBR1 231629Z 33028KT 01/M02 A2972 RMK A01 T00121015  RH  082%=      5-min Rain = 0
KBR1 231630Z 33029G35KT 01/M02 A2972 RMK A01 T00121017  RH  081%=      5-min Rain = 0
KBR1 231631Z 32024G31KT 01/M02 A2972 RMK A01 T00121015  RH  082%=      5-min Rain = 0
KBR1 231632Z 32025G32KT 01/M01 A2972 RMK A01 T00131014  RH  082%=      5-min Rain = 0
KBR1 231633Z 32028KT 01/M02 A2973 RMK A01 T00131016  RH  081%=      5-min Rain = 0
KBR1 231634Z 33026KT 01/M02 A2973 RMK A01 T00121018  RH  080%=      5-min Rain = 0
KBR1 231635Z 32028G37KT 01/M02 A2973 RMK A01 T00121017  RH  081%=      5-min Rain = 0
KBR1 231636Z 33027G34KT 01/M02 A2973 RMK A01 T00131018  RH  080%=      5-min Rain = 0
KBR1 231637Z 32030G37KT 01/M02 A2973 RMK A01 T00131018  RH  080%=      5-min Rain = 0
KBR1 231638Z 32026KT 01/M02 A2974 RMK A01 T00121021  RH  079%=      5-min Rain = 0
KBR1 231639Z 33024KT 01/M02 A2974 RMK A01 T00131018  RH  080%=      5-min Rain = 0
KBR1 231640Z 32023G29KT 01/M02 A2974 RMK A01 T00131016  RH  081%=      5-min Rain = 0
KBR1 231641Z 32024G31KT 01/M02 A2974 RMK A01 T00141017  RH  080%=      5-min Rain = 0
KBR1 231642Z 32031G38KT 01/M02 A2974 RMK A01 T00141018  RH  079%=      5-min Rain = 0
KBR1 231643Z 33033G38KT 01/M03 A2975 RMK A01 T00131026  RH  076%=      5-min Rain = 0
KBR1 231644Z 32027G33KT 01/M03 A2975 RMK A01 T00121025  RH  077%=      5-min Rain = 0
KBR1 231645Z 33022KT 01/M02 A2975 RMK A01 T00131019  RH  079%=      5-min Rain = 0
KBR1 231646Z 33024G29KT 02/M02 A2975 RMK A01 T00151015  RH  080%=      5-min Rain = 0
KBR1 231647Z 33026KT 02/M02 A2975 RMK A01 T00161019  RH  078%=      5-min Rain = 0
KBR1 231648Z 33024G30KT 02/M02 A2975 RMK A01 T00161019  RH  078%=      5-min Rain = 0
KBR1 231649Z 33022KT 02/M02 A2975 RMK A01 T00171017  RH  078%=      5-min Rain = 0
KBR1 231650Z 33028G37KT 02/M02 A2976 RMK A01 T00181018  RH  077%=      5-min Rain = 0
KBR1 231651Z 33031G36KT 02/M02 A2976 RMK A01 T00181023  RH  074%=      5-min Rain = 0
KBR1 231652Z 33029G34KT 02/M03 A2976 RMK A01 T00171026  RH  073%=      5-min Rain = 0
KBR1 231653Z 33029KT 02/M03 A2976 RMK A01 T00161027  RH  073%=      5-min Rain = 0
KBR1 231654Z 33024KT 02/M03 A2976 RMK A01 T00161025  RH  074%=      5-min Rain = 0
KBR1 231655Z 33024G29KT 02/M02 A2976 RMK A01 T00171022  RH  075%=      5-min Rain = 0
KBR1 231656Z 33028KT 02/M03 A2976 RMK A01 T00171025  RH  074%=      5-min Rain = 0
KBR1 231657Z 33031G37KT 02/M03 A2976 RMK A01 T00171026  RH  073%=      5-min Rain = 0
KBR1 231658Z 33033KT 02/M03 A2977 RMK A01 T00161029  RH  072%=      5-min Rain = 0
KBR1 231659Z 33030G37KT 02/M03 A2977 RMK A01 T00171028  RH  072%=      5-min Rain = 0
KBR1 231700Z 33028KT 02/M03 A2977 RMK A01 T00181027  RH  072%=      5-min Rain = 0
KBR1 231701Z 33031G36KT 02/M03 A2977 RMK A01 T00181027  RH  072%=      5-min Rain = 0
KBR1 231702Z 34029G36KT 02/M03 A2977 RMK A01 T00181030  RH  070%=      5-min Rain = 0
KBR1 231703Z 33027KT 02/M03 A2977 RMK A01 T00191026  RH  072%=      5-min Rain = 0
KBR1 231704Z 34024G30KT 02/M02 A2978 RMK A01 T00221021  RH  073%=      5-min Rain = 0
KBR1 231705Z 34025KT 02/M02 A2978 RMK A01 T00241022  RH  072%=      5-min Rain = 0
KBR1 231706Z 33025G37KT 03/M02 A2978 RMK A01 T00251019  RH  073%=      5-min Rain = 0
KBR1 231707Z 33028G38KT 03/M02 A2978 RMK A01 T00271019  RH  072%=      5-min Rain = 0
KBR1 231708Z 33031KT 03/M03 A2978 RMK A01 T00261027  RH  068%=      5-min Rain = 0
KBR1 231709Z 33029G37KT 02/M03 A2979 RMK A01 T00241032  RH  067%=      5-min Rain = 0
KBR1 231710Z 33025G30KT 02/M03 A2979 RMK A01 T00241027  RH  069%=      5-min Rain = 0
KBR1 231711Z 33024G30KT 03/M03 A2979 RMK A01 T00251026  RH  069%=      5-min Rain = 0
KBR1 231712Z 34028G33KT 03/M03 A2979 RMK A01 T00251027  RH  069%=      5-min Rain = 0
KBR1 231713Z 33029G34KT 03/M03 A298 RMK A01 T00251030  RH  067%=      5-min Rain = 0
KBR1 231714Z 34032KT 03/M03 A298 RMK A01 T00251032  RH  066%=      5-min Rain = 0
KBR1 231715Z 34029G35KT 03/M03 A298 RMK A01 T00251032  RH  066%=      5-min Rain = 0
KBR1 231716Z 34024G30KT 03/M03 A298 RMK A01 T00281025  RH  068%=      5-min Rain = 0
KBR1 231717Z 33031KT 03/M03 A298 RMK A01 T00301025  RH  067%=      5-min Rain = 0
KBR1 231718Z 32028G34KT 03/M03 A298 RMK A01 T00291029  RH  066%=      5-min Rain = 0
KBR1 231719Z 33029G36KT 03/M03 A298 RMK A01 T00301026  RH  067%=      5-min Rain = 0
KBR1 231720Z 33030G35KT 03/M03 A2981 RMK A01 T00301028  RH  065%=      5-min Rain = 0
KBR1 231721Z 33028KT 03/M03 A2981 RMK A01 T00291031  RH  065%=      5-min Rain = 0
KBR1 231722Z 33026G31KT 03/M03 A2981 RMK A01 T00271031  RH  065%=      5-min Rain = 0
KBR1 231723Z 34027G33KT 03/M03 A2981 RMK A01 T00281030  RH  066%=      5-min Rain = 0
KBR1 231724Z 34026G31KT 03/M03 A2981 RMK A01 T00281031  RH  065%=      5-min Rain = 0
KBR1 231725Z 33025KT 03/M03 A2981 RMK A01 T00271032  RH  065%=      5-min Rain = 0
KBR1 231726Z 32026G31KT 03/M03 A2981 RMK A01 T00261033  RH  065%=      5-min Rain = 0
KBR1 231727Z 33027G34KT 03/M03 A2981 RMK A01 T00261033  RH  065%=      5-min Rain = 0
KBR1 231728Z 33024KT 03/M03 A2981 RMK A01 T00261030  RH  066%=      5-min Rain = 0
KBR1 231729Z 33024G29KT 03/M03 A2982 RMK A01 T00281029  RH  066%=      5-min Rain = 0
KBR1 231730Z 33023KT 03/M03 A2982 RMK A01 T00291029  RH  066%=      5-min Rain = 0
KBR1 231731Z 33022G27KT 03/M03 A2982 RMK A01 T00291030  RH  065%=      5-min Rain = 0
KBR1 231732Z 33021G26KT 03/M03 A2982 RMK A01 T00301028  RH  066%=      5-min Rain = 0
KBR1 231733Z 32027KT 03/M03 A2982 RMK A01 T00311029  RH  065%=      5-min Rain = 0
KBR1 231734Z 33024G31KT 03/M03 A2982 RMK A01 T00291032  RH  064%=      5-min Rain = 0
KBR1 231735Z 34026G31KT 03/M03 A2982 RMK A01 T00311030  RH  064%=      5-min Rain = 0
KBR1 231736Z 34025G33KT 03/M03 A2982 RMK A01 T00321029  RH  065%=      5-min Rain = 0
KBR1 231737Z 34028G33KT 03/M03 A2982 RMK A01 T00321031  RH  063%=      5-min Rain = 0
KBR1 231738Z 34026G31KT 03/M03 A2982 RMK A01 T00311034  RH  062%=      5-min Rain = 0
KBR1 231739Z 33025KT 03/M03 A2982 RMK A01 T00311033  RH  063%=      5-min Rain = 0
KBR1 231740Z 34026G32KT 03/M03 A2983 RMK A01 T00321033  RH  062%=      5-min Rain = 0
KBR1 231741Z 33023KT 03/M03 A2983 RMK A01 T00331031  RH  063%=      5-min Rain = 0
KBR1 231742Z 33029G35KT 03/M03 A2983 RMK A01 T00341032  RH  062%=      5-min Rain = 0
KBR1 231743Z 33031G36KT 03/M04 A2983 RMK A01 T00331036  RH  061%=      5-min Rain = 0
KBR1 231744Z 33028G36KT 03/M04 A2983 RMK A01 T00331035  RH  061%=      5-min Rain = 0
KBR1 231745Z 34027G32KT 04/M03 A2983 RMK A01 T00351031  RH  062%=      5-min Rain = 0
KBR1 231746Z 34031G36KT 04/M03 A2983 RMK A01 T00361032  RH  061%=      5-min Rain = 0
KBR1 231747Z 33031KT 03/M04 A2983 RMK A01 T00341036  RH  060%=      5-min Rain = 0
KBR1 231748Z 34030G36KT 03/M04 A2983 RMK A01 T00331037  RH  060%=      5-min Rain = 0
KBR1 231749Z 34028G35KT 03/M04 A2983 RMK A01 T00321037  RH  060%=      5-min Rain = 0
KBR1 231750Z 33025G31KT 03/M03 A2983 RMK A01 T00331034  RH  061%=      5-min Rain = 0
KBR1 231751Z 33024G30KT 04/M03 A2983 RMK A01 T00381028  RH  062%=      5-min Rain = 0
KBR1 231752Z 33027G33KT 04/M03 A2983 RMK A01 T00411028  RH  061%=      5-min Rain = 0
KBR1 231753Z 34028G36KT 04/M03 A2983 RMK A01 T00401033  RH  059%=      5-min Rain = 0
KBR1 231754Z 33031G38KT 04/M03 A2984 RMK A01 T00391034  RH  059%=      5-min Rain = 0
KBR1 231755Z 33030KT 04/M04 A2984 RMK A01 T00371037  RH  058%=      5-min Rain = 0
KBR1 231756Z 33030G39KT 04/M04 A2984 RMK A01 T00371036  RH  059%=      5-min Rain = 0
KBR1 231757Z 34030G35KT 04/M04 A2984 RMK A01 T00371037  RH  058%=      5-min Rain = 0
KBR1 231758Z 33030G35KT 04/M04 A2984 RMK A01 T00371038  RH  058%=      5-min Rain = 0
KBR1 231759Z 33028G34KT 04/M04 A2984 RMK A01 T00371040  RH  057%=      5-min Rain = 0
KBR1 231800Z 33026G31KT 04/M04 A2984 RMK A01 T00391037  RH  058%=      5-min Rain = 0
KBR1 231801Z 34029G34KT 04/M03 A2984 RMK A01 T00411033  RH  059%=      5-min Rain = 0
KBR1 231802Z 33030KT 04/M04 A2984 RMK A01 T00411035  RH  058%=      5-min Rain = 0
KBR1 231803Z 34030KT 04/M04 A2984 RMK A01 T00391038  RH  057%=      5-min Rain = 0
KBR1 231804Z 34028G35KT 04/M04 A2984 RMK A01 T00391038  RH  057%=      5-min Rain = 0
KBR1 231805Z 34027G33KT 04/M03 A2984 RMK A01 T00401034  RH  058%=      5-min Rain = 0
KBR1 231806Z 33028KT 04/M03 A2984 RMK A01 T00421033  RH  058%=      5-min Rain = 0
KBR1 231807Z 33028G35KT 04/M04 A2984 RMK A01 T00421035  RH  057%=      5-min Rain = 0
KBR1 231808Z 33027G33KT 04/M03 A2984 RMK A01 T00431034  RH  058%=      5-min Rain = 0
KBR1 231809Z 33029KT 04/M03 A2984 RMK A01 T00441033  RH  057%=      5-min Rain = 0
KBR1 231810Z 34032KT 04/M04 A2984 RMK A01 T00421037  RH  056%=      5-min Rain = 0
KBR1 231811Z 34029G34KT 04/M04 A2984 RMK A01 T00401038  RH  057%=      5-min Rain = 0
KBR1 231812Z 33027KT 04/M03 A2985 RMK A01 T00411034  RH  058%=      5-min Rain = 0
KBR1 231813Z 33029G34KT 04/M03 A2985 RMK A01 T00431034  RH  057%=      5-min Rain = 0
KBR1 231814Z 33027KT 04/M04 A2985 RMK A01 T00411038  RH  056%=      5-min Rain = 0
KBR1 231815Z 33030G35KT 04/M04 A2985 RMK A01 T00401036  RH  057%=      5-min Rain = 0
KBR1 231816Z 32029G34KT 04/M04 A2985 RMK A01 T00401035  RH  058%=      5-min Rain = 0
KBR1 231817Z 33028G36KT 04/M04 A2985 RMK A01 T00411036  RH  057%=      5-min Rain = 0
KBR1 231818Z 33027G32KT 04/M04 A2985 RMK A01 T00411036  RH  057%=      5-min Rain = 0
KBR1 231819Z 33028KT 04/M04 A2985 RMK A01 T00431035  RH  057%=      5-min Rain = 0
KBR1 231820Z 32029KT 04/M04 A2985 RMK A01 T00421037  RH  056%=      5-min Rain = 0
KBR1 231821Z 33028G38KT 04/M04 A2985 RMK A01 T00411039  RH  056%=      5-min Rain = 0
KBR1 231822Z 33030KT 04/M04 A2985 RMK A01 T00401039  RH  056%=      5-min Rain = 0
KBR1 231823Z 33027KT 04/M04 A2986 RMK A01 T00401041  RH  056%=      5-min Rain = 0
KBR1 231824Z 33030G35KT 04/M04 A2986 RMK A01 T00411037  RH  057%=      5-min Rain = 0
KBR1 231825Z 32029G35KT 04/M04 A2986 RMK A01 T00431038  RH  056%=      5-min Rain = 0
KBR1 231826Z 32029G34KT 04/M04 A2986 RMK A01 T00431040  RH  055%=      5-min Rain = 0
KBR1 231827Z 33026G32KT 04/M04 A2986 RMK A01 T00421039  RH  056%=      5-min Rain = 0
KBR1 231828Z 32030G35KT 04/M04 A2986 RMK A01 T00441037  RH  056%=      5-min Rain = 0
KBR1 231829Z 33023KT 04/M04 A2986 RMK A01 T00431038  RH  056%=      5-min Rain = 0
KBR1 231830Z 33026G35KT 05/M03 A2986 RMK A01 T00451033  RH  057%=      5-min Rain = 0
KBR1 231831Z 33027G32KT 05/M03 A2987 RMK A01 T00471034  RH  056%=      5-min Rain = 0
KBR1 231832Z 33027KT 05/M04 A2987 RMK A01 T00461035  RH  055%=      5-min Rain = 0
KBR1 231833Z 32027KT 05/M04 A2987 RMK A01 T00451038  RH  055%=      5-min Rain = 0
KBR1 231834Z 33025G31KT 04/M04 A2987 RMK A01 T00441042  RH  054%=      5-min Rain = 0
KBR1 231835Z 33032G37KT 04/M04 A2987 RMK A01 T00421043  RH  054%=      5-min Rain = 0
KBR1 231836Z 33032KT 04/M04 A2987 RMK A01 T00411043  RH  054%=      5-min Rain = 0
KBR1 231837Z 33029G35KT 04/M04 A2987 RMK A01 T00431040  RH  055%=      5-min Rain = 0
KBR1 231838Z 33030KT 05/M04 A2987 RMK A01 T00451040  RH  054%=      5-min Rain = 0
KBR1 231839Z 34031KT 05/M04 A2987 RMK A01 T00451041  RH  054%=      5-min Rain = 0
KBR1 231840Z 33030G35KT 04/M04 A2987 RMK A01 T00441041  RH  054%=      5-min Rain = 0
KBR1 231841Z 33029G34KT 04/M04 A2987 RMK A01 T00441040  RH  054%=      5-min Rain = 0
KBR1 231842Z 33026KT 05/M04 A2987 RMK A01 T00451041  RH  054%=      5-min Rain = 0
KBR1 231843Z 33029G34KT 05/M04 A2987 RMK A01 T00471037  RH  055%=      5-min Rain = 0
KBR1 231844Z 33026G31KT 05/M04 A2987 RMK A01 T00491037  RH  054%=      5-min Rain = 0
KBR1 231845Z 33029KT 05/M04 A2987 RMK A01 T00491036  RH  054%=      5-min Rain = 0
KBR1 231846Z 33028G33KT 05/M04 A2987 RMK A01 T00501036  RH  054%=      5-min Rain = 0
KBR1 231847Z 33032G38KT 05/M04 A2987 RMK A01 T00501036  RH  054%=      5-min Rain = 0
KBR1 231848Z 34028G34KT 05/M04 A2988 RMK A01 T00501038  RH  053%=      5-min Rain = 0
KBR1 231849Z 33031G36KT 05/M04 A2988 RMK A01 T00501040  RH  052%=      5-min Rain = 0
KBR1 231850Z 34031KT 05/M04 A2988 RMK A01 T00481043  RH  052%=      5-min Rain = 0
KBR1 231851Z 33032G38KT 05/M04 A2988 RMK A01 T00461044  RH  052%=      5-min Rain = 0
KBR1 231852Z 33031KT 05/M04 A2988 RMK A01 T00461043  RH  052%=      5-min Rain = 0
KBR1 231853Z 33030KT 05/M04 A2988 RMK A01 T00471044  RH  052%=      5-min Rain = 0
KBR1 231854Z 33029G34KT 05/M04 A2988 RMK A01 T00471043  RH  052%=      5-min Rain = 0
KBR1 231855Z 35028G34KT 05/M04 A2987 RMK A01 T00491039  RH  053%=      5-min Rain = 0
KBR1 231856Z 35034G42KT 05/M04 A2987 RMK A01 T00501040  RH  052%=      5-min Rain = 0
KBR1 231857Z 34030G35KT 05/M04 A2988 RMK A01 T00491042  RH  052%=      5-min Rain = 0
KBR1 231858Z 34027G32KT 05/M04 A2988 RMK A01 T00501041  RH  052%=      5-min Rain = 0
KBR1 231859Z 34032G37KT 05/M04 A2988 RMK A01 T00501041  RH  052%=      5-min Rain = 0
KBR1 231900Z 34032G37KT 05/M05 A2988 RMK A01 T00491045  RH  051%=      5-min Rain = 0
KBR1 231901Z 35028KT 05/M04 A2988 RMK A01 T00491041  RH  052%=      5-min Rain = 0
KBR1 231902Z 34027G32KT 05/M04 A2988 RMK A01 T00521036  RH  053%=      5-min Rain = 0
KBR1 231903Z 34029G35KT 05/M04 A2988 RMK A01 T00541039  RH  051%=      5-min Rain = 0
KBR1 231904Z 34028KT 05/M04 A2988 RMK A01 T00521041  RH  051%=      5-min Rain = 0
KBR1 231905Z 34027G37KT 05/M04 A2988 RMK A01 T00541038  RH  052%=      5-min Rain = 0
KBR1 231906Z 34032KT 05/M04 A2988 RMK A01 T00541042  RH  050%=      5-min Rain = 0
KBR1 231907Z 34029KT 05/M04 A2988 RMK A01 T00511044  RH  051%=      5-min Rain = 0
KBR1 231908Z 34029G35KT 05/M04 A2988 RMK A01 T00511042  RH  051%=      5-min Rain = 0
KBR1 231909Z 34029KT 05/M04 A2988 RMK A01 T00511041  RH  051%=      5-min Rain = 0
KBR1 231910Z 34026G31KT 05/M04 A2988 RMK A01 T00531038  RH  052%=      5-min Rain = 0
KBR1 231911Z 34027G33KT 05/M04 A2988 RMK A01 T00541039  RH  051%=      5-min Rain = 0
KBR1 231912Z 33024G30KT 05/M04 A2988 RMK A01 T00541039  RH  051%=      5-min Rain = 0
KBR1 231913Z 34026G31KT 06/M03 A2988 RMK A01 T00591033  RH  052%=      5-min Rain = 0
KBR1 231914Z 33026G31KT 06/M04 A2988 RMK A01 T00601039  RH  049%=      5-min Rain = 0
KBR1 231915Z 33026G33KT 06/M04 A2988 RMK A01 T00591038  RH  050%=      5-min Rain = 0
KBR1 231916Z 33030G36KT 06/M04 A2988 RMK A01 T00601040  RH  048%=      5-min Rain = 0
KBR1 231917Z 34030G36KT 06/M04 A2988 RMK A01 T00581044  RH  048%=      5-min Rain = 0
KBR1 231918Z 33029G34KT 06/M05 A2988 RMK A01 T00561046  RH  048%=      5-min Rain = 0
KBR1 231919Z 34029G36KT 06/M05 A2988 RMK A01 T00551046  RH  048%=      5-min Rain = 0
KBR1 231920Z 34027G32KT 06/M05 A2988 RMK A01 T00551046  RH  048%=      5-min Rain = 0
KBR1 231921Z 34027G33KT 06/M05 A2988 RMK A01 T00551045  RH  048%=      5-min Rain = 0
KBR1 231922Z 33027G33KT 06/M04 A2988 RMK A01 T00561044  RH  049%=      5-min Rain = 0
KBR1 231923Z 33030G35KT 06/M04 A2988 RMK A01 T00571044  RH  048%=      5-min Rain = 0
KBR1 231924Z 33026G34KT 06/M05 A2988 RMK A01 T00561046  RH  048%=      5-min Rain = 0
KBR1 231925Z 33025KT 06/M04 A2988 RMK A01 T00571044  RH  048%=      5-min Rain = 0
KBR1 231926Z 33023KT 06/M04 A2988 RMK A01 T00591042  RH  049%=      5-min Rain = 0
KBR1 231927Z 32024G34KT 06/M04 A2988 RMK A01 T00631037  RH  049%=      5-min Rain = 0
KBR1 231928Z 35028KT 06/M04 A2988 RMK A01 T00631042  RH  047%=      5-min Rain = 0
KBR1 231929Z 34026KT 06/M05 A2988 RMK A01 T00601046  RH  046%=      5-min Rain = 0
KBR1 231930Z 34023G28KT 06/M04 A2989 RMK A01 T00601044  RH  047%=      5-min Rain = 0
KBR1 231931Z 35027KT 06/M04 A2988 RMK A01 T00601043  RH  047%=      5-min Rain = 0
KBR1 231932Z 34027KT 06/M04 A2989 RMK A01 T00611043  RH  047%=      5-min Rain = 0
KBR1 231933Z 34027KT 06/M05 A2989 RMK A01 T00601046  RH  047%=      5-min Rain = 0
KBR1 231934Z 34026KT 06/M05 A2989 RMK A01 T00581045  RH  047%=      5-min Rain = 0
KBR1 231935Z 33025G30KT 06/M05 A2989 RMK A01 T00571046  RH  048%=      5-min Rain = 0
KBR1 231936Z 33027G33KT 06/M04 A2989 RMK A01 T00591044  RH  048%=      5-min Rain = 0
KBR1 231937Z 32026G32KT 06/M05 A2989 RMK A01 T00601045  RH  047%=      5-min Rain = 0
KBR1 231938Z 33028G33KT 06/M04 A2989 RMK A01 T00621044  RH  047%=      5-min Rain = 0
KBR1 231939Z 34028KT 06/M05 A2989 RMK A01 T00591049  RH  046%=      5-min Rain = 0
KBR1 231940Z 33025G31KT 06/M05 A2989 RMK A01 T00571048  RH  047%=      5-min Rain = 0
KBR1 231941Z 34029KT 06/M04 A2989 RMK A01 T00601044  RH  047%=      5-min Rain = 0
KBR1 231942Z 34023KT 06/M05 A2989 RMK A01 T00601045  RH  047%=      5-min Rain = 0
KBR1 231943Z 34026KT 06/M04 A2989 RMK A01 T00601044  RH  047%=      5-min Rain = 0
KBR1 231944Z 34024G29KT 06/M05 A299 RMK A01 T00601045  RH  047%=      5-min Rain = 0
KBR1 231945Z 35023G28KT 06/M05 A2989 RMK A01 T00591047  RH  046%=      5-min Rain = 0
KBR1 231946Z 35028KT 06/M05 A2989 RMK A01 T00601046  RH  047%=      5-min Rain = 0
KBR1 231947Z 34023KT 06/M05 A2989 RMK A01 T00591046  RH  047%=      5-min Rain = 0
KBR1 231948Z 34026G31KT 06/M04 A2989 RMK A01 T00621042  RH  047%=      5-min Rain = 0
KBR1 231949Z 34022G28KT 06/M04 A299 RMK A01 T00611044  RH  047%=      5-min Rain = 0
KBR1 231950Z 34020KT 06/M04 A299 RMK A01 T00611043  RH  047%=      5-min Rain = 0
KBR1 231951Z 34019KT 06/M04 A2989 RMK A01 T00621043  RH  047%=      5-min Rain = 0
KBR1 231952Z 34021KT 06/M04 A2989 RMK A01 T00631042  RH  047%=      5-min Rain = 0
KBR1 231953Z 34026KT 07/M04 A299 RMK A01 T00651042  RH  046%=      5-min Rain = 0
KBR1 231954Z 34026G32KT 07/M04 A299 RMK A01 T00651044  RH  046%=      5-min Rain = 0
KBR1 231955Z 33023KT 06/M05 A299 RMK A01 T00631046  RH  045%=      5-min Rain = 0
KBR1 231956Z 35026KT 06/M04 A299 RMK A01 T00631044  RH  046%=      5-min Rain = 0
KBR1 231957Z 36024G31KT 06/M05 A2989 RMK A01 T00621047  RH  045%=      5-min Rain = 0
KBR1 231958Z 35023G29KT 06/M05 A299 RMK A01 T00621045  RH  047%=      5-min Rain = 0
KBR1 231959Z 35027KT 06/M04 A299 RMK A01 T00641042  RH  046%=      5-min Rain = 0
KBR1 232000Z 34022KT 07/M04 A299 RMK A01 T00651043  RH  046%=      5-min Rain = 0
KBR1 232001Z 34025KT 07/M04 A299 RMK A01 T00661044  RH  045%=      5-min Rain = 0
KBR1 232002Z 34026KT 06/M05 A299 RMK A01 T00641047  RH  045%=      5-min Rain = 0
KBR1 232003Z 34023KT 06/M05 A299 RMK A01 T00631046  RH  045%=      5-min Rain = 0
KBR1 232004Z 34021KT 06/M05 A299 RMK A01 T00631046  RH  045%=      5-min Rain = 0
KBR1 232005Z 34022KT 07/M04 A299 RMK A01 T00651043  RH  046%=      5-min Rain = 0
KBR1 232006Z 33020G25KT 07/M04 A299 RMK A01 T00651043  RH  046%=      5-min Rain = 0
KBR1 232007Z 34021G27KT 07/M04 A299 RMK A01 T00651043  RH  046%=      5-min Rain = 0
KBR1 232008Z 35026KT 07/M05 A299 RMK A01 T00651046  RH  045%=      5-min Rain = 0
KBR1 232009Z 35024G32KT 06/M05 A299 RMK A01 T00631049  RH  045%=      5-min Rain = 0
KBR1 232010Z 34024G29KT 06/M05 A299 RMK A01 T00621047  RH  045%=      5-min Rain = 0
KBR1 232011Z 35026KT 06/M05 A299 RMK A01 T00621047  RH  045%=      5-min Rain = 0
KBR1 232012Z 35022KT 06/M05 A299 RMK A01 T00621048  RH  045%=      5-min Rain = 0
KBR1 232013Z 35025G30KT 06/M05 A299 RMK A01 T00621048  RH  045%=      5-min Rain = 0
KBR1 232014Z 35020G25KT 06/M05 A299 RMK A01 T00631046  RH  046%=      5-min Rain = 0
KBR1 232015Z 35024KT 06/M05 A299 RMK A01 T00641046  RH  045%=      5-min Rain = 0
KBR1 232016Z 35024G30KT 06/M05 A299 RMK A01 T00631048  RH  045%=      5-min Rain = 0
KBR1 232017Z 36024KT 06/M05 A299 RMK A01 T00611050  RH  045%=      5-min Rain = 0
KBR1 232018Z 36025KT 06/M05 A299 RMK A01 T00581050  RH  046%=      5-min Rain = 0
KBR1 232019Z 35023KT 06/M05 A299 RMK A01 T00581048  RH  047%=      5-min Rain = 0
KBR1 232020Z 35017KT 06/M05 A299 RMK A01 T00581046  RH  047%=      5-min Rain = 0
KBR1 232021Z 35019KT 06/M04 A299 RMK A01 T00611043  RH  047%=      5-min Rain = 0
KBR1 232022Z 34019KT 06/M05 A299 RMK A01 T00611045  RH  046%=      5-min Rain = 0
KBR1 232023Z 34020KT 06/M04 A299 RMK A01 T00611043  RH  047%=      5-min Rain = 0
KBR1 232024Z 34016KT 06/M04 A299 RMK A01 T00611044  RH  047%=      5-min Rain = 0
KBR1 232025Z 33018KT 07/M04 A299 RMK A01 T00651037  RH  048%=      5-min Rain = 0
KBR1 232026Z 34019KT 07/M04 A299 RMK A01 T00681038  RH  047%=      5-min Rain = 0
KBR1 232027Z 34021KT 07/M04 A2991 RMK A01 T00701039  RH  046%=      5-min Rain = 0
KBR1 232028Z 33018KT 07/M04 A2991 RMK A01 T00681042  RH  045%=      5-min Rain = 0
KBR1 232029Z 34020KT 07/M04 A2991 RMK A01 T00651043  RH  046%=      5-min Rain = 0
KBR1 232030Z 35018KT 07/M04 A2991 RMK A01 T00651041  RH  047%=      5-min Rain = 0
KBR1 232031Z 35020KT 07/M04 A2991 RMK A01 T00661040  RH  047%=      5-min Rain = 0
KBR1 232032Z 34020KT 07/M04 A2991 RMK A01 T00661039  RH  047%=      5-min Rain = 0
KBR1 232033Z 33019KT 07/M04 A2991 RMK A01 T00681038  RH  047%=      5-min Rain = 0
KBR1 232034Z 32019G24KT 07/M04 A2991 RMK A01 T00701040  RH  045%=      5-min Rain = 0
KBR1 232035Z 32020G25KT 07/M04 A2991 RMK A01 T00691040  RH  046%=      5-min Rain = 0
KBR1 232036Z 33019KT 07/M04 A2991 RMK A01 T00681041  RH  046%=      5-min Rain = 0
KBR1 232037Z 34016G21KT 07/M04 A2991 RMK A01 T00681040  RH  046%=      5-min Rain = 0
KBR1 232038Z 33016G21KT 07/M04 A2991 RMK A01 T00681039  RH  046%=      5-min Rain = 0
KBR1 232039Z 34019KT 07/M04 A2992 RMK A01 T00701037  RH  046%=      5-min Rain = 0
KBR1 232040Z 34019G24KT 07/M04 A2992 RMK A01 T00691041  RH  045%=      5-min Rain = 0
KBR1 232041Z 33020G25KT 07/M04 A2992 RMK A01 T00671042  RH  046%=      5-min Rain = 0
KBR1 232042Z 33020G25KT 07/M04 A2992 RMK A01 T00721039  RH  045%=      5-min Rain = 0
KBR1 232043Z 33023KT 07/M05 A2992 RMK A01 T00721046  RH  043%=      5-min Rain = 0
KBR1 232044Z 33019KT 07/M05 A2992 RMK A01 T00701047  RH  043%=      5-min Rain = 0
KBR1 232045Z 34021G26KT 07/M05 A2992 RMK A01 T00701046  RH  044%=      5-min Rain = 0
KBR1 232046Z 34022G27KT 07/M05 A2992 RMK A01 T00701047  RH  043%=      5-min Rain = 0
KBR1 232047Z 33017KT 07/M05 A2992 RMK A01 T00691049  RH  043%=      5-min Rain = 0
KBR1 232048Z 34020G27KT 07/M05 A2992 RMK A01 T00701047  RH  043%=      5-min Rain = 0
KBR1 232049Z 35020KT 07/M04 A2992 RMK A01 T00731044  RH  043%=      5-min Rain = 0
KBR1 232050Z 35018KT 07/M05 A2992 RMK A01 T00741045  RH  043%=      5-min Rain = 0
KBR1 232051Z 35019KT 07/M05 A2992 RMK A01 T00741046  RH  042%=      5-min Rain = 0
KBR1 232052Z 35016KT 07/M05 A2992 RMK A01 T00721046  RH  043%=      5-min Rain = 0
KBR1 232053Z 34016G21KT 07/M04 A2992 RMK A01 T00711044  RH  044%=      5-min Rain = 0
KBR1 232054Z 35021KT 07/M04 A2992 RMK A01 T00731044  RH  043%=      5-min Rain = 0
KBR1 232055Z 34021KT 07/M04 A2992 RMK A01 T00731043  RH  043%=      5-min Rain = 0
KBR1 232056Z 34020KT 07/M04 A2992 RMK A01 T00741043  RH  043%=      5-min Rain = 0
KBR1 232057Z 34019KT 07/M04 A2992 RMK A01 T00741042  RH  044%=      5-min Rain = 0
KBR1 232058Z 34016KT 07/M04 A2992 RMK A01 T00731042  RH  044%=      5-min Rain = 0
KBR1 232059Z 34014KT 07/M04 A2992 RMK A01 T00721041  RH  044%=      5-min Rain = 0
KBR1 232100Z 34018KT 07/M04 A2992 RMK A01 T00731044  RH  043%=      5-min Rain = 0
KBR1 232101Z 33015KT 07/M05 A2992 RMK A01 T00721046  RH  043%=      5-min Rain = 0
KBR1 232102Z 33015KT 07/M04 A2992 RMK A01 T00741043  RH  043%=      5-min Rain = 0
KBR1 232103Z 34018KT 08/M05 A2992 RMK A01 T00751046  RH  042%=      5-min Rain = 0
KBR1 232104Z 34018KT 08/M05 A2992 RMK A01 T00751048  RH  041%=      5-min Rain = 0
KBR1 232105Z 35017KT 07/M05 A2992 RMK A01 T00741049  RH  041%=      5-min Rain = 0
KBR1 232106Z 35016KT 07/M05 A2992 RMK A01 T00741048  RH  042%=      5-min Rain = 0
KBR1 232107Z 34017KT 08/M04 A2992 RMK A01 T00751043  RH  043%=      5-min Rain = 0
KBR1 232108Z 35015KT 08/M04 A2992 RMK A01 T00771041  RH  043%=      5-min Rain = 0
KBR1 232109Z 34016KT 08/M04 A2992 RMK A01 T00821037  RH  043%=      5-min Rain = 0
KBR1 232110Z 34016G21KT 08/M04 A2992 RMK A01 T00801042  RH  042%=      5-min Rain = 0
KBR1 232111Z 34015KT 08/M04 A2992 RMK A01 T00771043  RH  042%=      5-min Rain = 0
KBR1 232112Z 33012KT 08/M05 A2992 RMK A01 T00751046  RH  042%=      5-min Rain = 0
KBR1 232113Z 35013KT 08/M04 A2992 RMK A01 T00751041  RH  044%=      5-min Rain = 0
KBR1 232114Z 36018G23KT 08/M04 A2993 RMK A01 T00791041  RH  042%=      5-min Rain = 0
KBR1 232115Z 35019KT 08/M05 A2993 RMK A01 T00781048  RH  041%=      5-min Rain = 0
KBR1 232116Z 35020KT 08/M05 A2993 RMK A01 T00761048  RH  041%=      5-min Rain = 0
KBR1 232117Z 35016KT 07/M05 A2993 RMK A01 T00741049  RH  041%=      5-min Rain = 0
KBR1 232118Z 35017KT 07/M05 A2993 RMK A01 T00741049  RH  041%=      5-min Rain = 0
KBR1 232119Z 34017KT 08/M05 A2993 RMK A01 T00751052  RH  040%=      5-min Rain = 0
KBR1 232120Z 34014G20KT 08/M06 A2993 RMK A01 T00761055  RH  039%=      5-min Rain = 0
KBR1 232121Z 34019KT 08/M06 A2993 RMK A01 T00771059  RH  037%=      5-min Rain = 0
KBR1 232122Z 34020G25KT 08/M07 A2994 RMK A01 T00781066  RH  036%=      5-min Rain = 0
KBR1 232123Z 34017KT 07/M07 A2994 RMK A01 T00741069  RH  035%=      5-min Rain = 0
KBR1 232124Z 34019KT 07/M07 A2994 RMK A01 T00711069  RH  036%=      5-min Rain = 0
KBR1 232125Z 34018KT 07/M07 A2994 RMK A01 T00721071  RH  036%=      5-min Rain = 0
KBR1 232126Z 34017G22KT 07/M07 A2994 RMK A01 T00721072  RH  035%=      5-min Rain = 0
KBR1 232127Z 34017G22KT 07/M07 A2994 RMK A01 T00741070  RH  035%=      5-min Rain = 0
KBR1 232128Z 34019KT 08/M07 A2994 RMK A01 T00761067  RH  036%=      5-min Rain = 0
KBR1 232129Z 33018KT 08/M07 A2994 RMK A01 T00761069  RH  035%=      5-min Rain = 0
KBR1 232130Z 33020G26KT 07/M07 A2995 RMK A01 T00741072  RH  035%=      5-min Rain = 0
KBR1 232131Z 34019G24KT 07/M07 A2995 RMK A01 T00721074  RH  035%=      5-min Rain = 0
KBR1 232132Z 35021KT 07/M07 A2995 RMK A01 T00741073  RH  034%=      5-min Rain = 0
KBR1 232133Z 34019G24KT 08/M07 A2995 RMK A01 T00751074  RH  034%=      5-min Rain = 0
KBR1 232134Z 34020KT 07/M08 A2995 RMK A01 T00741079  RH  033%=      5-min Rain = 0
KBR1 232135Z 34022KT 07/M08 A2995 RMK A01 T00741079  RH  033%=      5-min Rain = 0
KBR1 232136Z 34023KT 07/M08 A2995 RMK A01 T00731082  RH  032%=      5-min Rain = 0
KBR1 232137Z 34021KT 07/M08 A2995 RMK A01 T00721081  RH  033%=      5-min Rain = 0
KBR1 232138Z 34019G25KT 07/M08 A2995 RMK A01 T00711081  RH  033%=      5-min Rain = 0
KBR1 232139Z 34021KT 07/M08 A2995 RMK A01 T00711080  RH  033%=      5-min Rain = 0
KBR1 232140Z 34015KT 07/M08 A2995 RMK A01 T00731078  RH  033%=      5-min Rain = 0
KBR1 232141Z 34015KT 08/M08 A2995 RMK A01 T00751078  RH  033%=      5-min Rain = 0
KBR1 232142Z 32018KT 08/M08 A2996 RMK A01 T00751081  RH  032%=      5-min Rain = 0
KBR1 232143Z 35023KT 07/M08 A2996 RMK A01 T00731083  RH  032%=      5-min Rain = 0
KBR1 232144Z 35021G26KT 07/M08 A2996 RMK A01 T00721083  RH  032%=      5-min Rain = 0
KBR1 232145Z 35019G25KT 07/M08 A2996 RMK A01 T00721079  RH  033%=      5-min Rain = 0
KBR1 232146Z 35019KT 07/M08 A2996 RMK A01 T00741080  RH  033%=      5-min Rain = 0
KBR1 232147Z 34019KT 07/M08 A2996 RMK A01 T00741079  RH  033%=      5-min Rain = 0
KBR1 232148Z 34018KT 07/M08 A2996 RMK A01 T00741078  RH  033%=      5-min Rain = 0
KBR1 232149Z 33021KT 08/M08 A2996 RMK A01 T00751080  RH  032%=      5-min Rain = 0
KBR1 232150Z 33020G26KT 07/M09 A2996 RMK A01 T00731085  RH  032%=      5-min Rain = 0
KBR1 232151Z 35022KT 07/M09 A2996 RMK A01 T00721087  RH  031%=      5-min Rain = 0
KBR1 232152Z 35022KT 07/M09 A2996 RMK A01 T00701091  RH  031%=      5-min Rain = 0
KBR1 232153Z 35021G26KT 07/M09 A2996 RMK A01 T00691092  RH  031%=      5-min Rain = 0
KBR1 232154Z 35020KT 07/M09 A2996 RMK A01 T00691089  RH  031%=      5-min Rain = 0
KBR1 232155Z 35018KT 07/M09 A2996 RMK A01 T00681089  RH  032%=      5-min Rain = 0
KBR1 232156Z 34017G25KT 07/M08 A2996 RMK A01 T00691084  RH  033%=      5-min Rain = 0
KBR1 232157Z 34019KT 07/M08 A2996 RMK A01 T00741083  RH  032%=      5-min Rain = 0
KBR1 232158Z 35020KT 07/M09 A2996 RMK A01 T00741085  RH  031%=      5-min Rain = 0
KBR1 232159Z 35022KT 07/M09 A2996 RMK A01 T00721092  RH  030%=      5-min Rain = 0
KBR1 232200Z 35021KT 07/M10 A2996 RMK A01 T00691095  RH  030%=      5-min Rain = 0
KBR1 232201Z 34021KT 07/M10 A2996 RMK A01 T00681095  RH  030%=      5-min Rain = 0
KBR1 232202Z 34019KT 07/M09 A2996 RMK A01 T00711092  RH  030%=      5-min Rain = 0
KBR1 232203Z 35020KT 07/M09 A2996 RMK A01 T00721093  RH  030%=      5-min Rain = 0
KBR1 232204Z 35018KT 07/M10 A2996 RMK A01 T00711095  RH  029%=      5-min Rain = 0
KBR1 232205Z 35019KT 07/M09 A2996 RMK A01 T00711092  RH  030%=      5-min Rain = 0
KBR1 232206Z 33022KT 07/M09 A2996 RMK A01 T00711093  RH  030%=      5-min Rain = 0
KBR1 232207Z 34018KT 07/M09 A2996 RMK A01 T00711091  RH  031%=      5-min Rain = 0
KBR1 232208Z 33018G23KT 07/M09 A2996 RMK A01 T00731087  RH  031%=      5-min Rain = 0
KBR1 232209Z 34020KT 07/M09 A2996 RMK A01 T00721092  RH  030%=      5-min Rain = 0
KBR1 232210Z 33017KT 07/M09 A2996 RMK A01 T00711092  RH  030%=      5-min Rain = 0
KBR1 232211Z 34019G24KT 07/M09 A2997 RMK A01 T00721089  RH  031%=      5-min Rain = 0
KBR1 232212Z 34015KT 07/M09 A2997 RMK A01 T00721089  RH  031%=      5-min Rain = 0
KBR1 232213Z 35015G23KT 07/M09 A2997 RMK A01 T00711085  RH  032%=      5-min Rain = 0
KBR1 232214Z 35020KT 07/M08 A2997 RMK A01 T00731084  RH  032%=      5-min Rain = 0
KBR1 232215Z 35015KT 07/M09 A2997 RMK A01 T00721089  RH  031%=      5-min Rain = 0
KBR1 232216Z 34017G22KT 07/M09 A2997 RMK A01 T00701090  RH  031%=      5-min Rain = 0
KBR1 232217Z 35019KT 07/M09 A2997 RMK A01 T00711093  RH  030%=      5-min Rain = 0
KBR1 232218Z 35020KT 07/M10 A2997 RMK A01 T00701098  RH  029%=      5-min Rain = 0
KBR1 232219Z 35015KT 07/M10 A2997 RMK A01 T00681099  RH  029%=      5-min Rain = 0
KBR1 232220Z 35014KT 07/M10 A2997 RMK A01 T00681096  RH  030%=      5-min Rain = 0
KBR1 232221Z 34014KT 07/M09 A2997 RMK A01 T00691094  RH  030%=      5-min Rain = 0
KBR1 232222Z 34014KT 07/M09 A2997 RMK A01 T00721094  RH  030%=      5-min Rain = 0
KBR1 232223Z 35015KT 07/M10 A2997 RMK A01 T00731096  RH  029%=      5-min Rain = 0
KBR1 232224Z 35019KT 07/M10 A2997 RMK A01 T00721095  RH  029%=      5-min Rain = 0
KBR1 232225Z 36015KT 07/M10 A2997 RMK A01 T00711095  RH  030%=      5-min Rain = 0
KBR1 232226Z 00017KT 07/M09 A2997 RMK A01 T00711094  RH  030%=      5-min Rain = 0
KBR1 232227Z 36016KT 07/M10 A2997 RMK A01 T00691099  RH  029%=      5-min Rain = 0
KBR1 232228Z 35017KT 07/M10 A2997 RMK A01 T00691095  RH  030%=      5-min Rain = 0
KBR1 232229Z 36018G23KT 07/M10 A2997 RMK A01 T00701095  RH  030%=      5-min Rain = 0
KBR1 232230Z 36019KT 07/M10 A2997 RMK A01 T00691102  RH  028%=      5-min Rain = 0
KBR1 232231Z 36016KT 07/M10 A2997 RMK A01 T00681098  RH  029%=      5-min Rain = 0
KBR1 232232Z 34018KT 07/M10 A2997 RMK A01 T00701098  RH  029%=      5-min Rain = 0
KBR1 232233Z 35015KT 07/M10 A2997 RMK A01 T00711101  RH  028%=      5-min Rain = 0
KBR1 232234Z 00015KT 07/M10 A2997 RMK A01 T00721099  RH  028%=      5-min Rain = 0
KBR1 232235Z 35014KT 07/M10 A2997 RMK A01 T00711099  RH  029%=      5-min Rain = 0
KBR1 232236Z 35016KT 07/M10 A2997 RMK A01 T00711100  RH  028%=      5-min Rain = 0
KBR1 232237Z 35017KT 07/M10 A2997 RMK A01 T00701100  RH  029%=      5-min Rain = 0
KBR1 232238Z 35013KT 07/M10 A2997 RMK A01 T00711097  RH  029%=      5-min Rain = 0
KBR1 232239Z 34015KT 07/M10 A2997 RMK A01 T00721097  RH  029%=      5-min Rain = 0
KBR1 232240Z 35015KT 07/M10 A2997 RMK A01 T00721098  RH  029%=      5-min Rain = 0
KBR1 232241Z 36017KT 07/M10 A2997 RMK A01 T00721103  RH  028%=      5-min Rain = 0
KBR1 232242Z 36018KT 07/M10 A2998 RMK A01 T00711102  RH  028%=      5-min Rain = 0
KBR1 232243Z 35017KT 07/M11 A2998 RMK A01 T00691105  RH  028%=      5-min Rain = 0
KBR1 232244Z 00015KT 07/M11 A2998 RMK A01 T00681106  RH  028%=      5-min Rain = 0
KBR1 232245Z 36014KT 07/M10 A2998 RMK A01 T00671104  RH  028%=      5-min Rain = 0
KBR1 232246Z 35009KT 07/M10 A2998 RMK A01 T00671104  RH  028%=      5-min Rain = 0
KBR1 232247Z 36014G20KT 07/M10 A2998 RMK A01 T00691100  RH  029%=      5-min Rain = 0
KBR1 232248Z 00018KT 07/M10 A2998 RMK A01 T00691102  RH  028%=      5-min Rain = 0
KBR1 232249Z 01014KT 07/M10 A2998 RMK A01 T00681104  RH  028%=      5-min Rain = 0
KBR1 232250Z 01013KT 07/M11 A2998 RMK A01 T00671106  RH  028%=      5-min Rain = 0
KBR1 232251Z 36013KT 07/M11 A2998 RMK A01 T00681106  RH  028%=      5-min Rain = 0
KBR1 232252Z 01017KT 07/M10 A2998 RMK A01 T00701103  RH  028%=      5-min Rain = 0
KBR1 232253Z 01017KT 07/M11 A2998 RMK A01 T00701106  RH  027%=      5-min Rain = 0
KBR1 232254Z 00018KT 07/M11 A2998 RMK A01 T00681105  RH  028%=      5-min Rain = 0
KBR1 232255Z 00017KT 07/M11 A2998 RMK A01 T00681105  RH  028%=      5-min Rain = 0
KBR1 232256Z 01016KT 07/M10 A2998 RMK A01 T00681104  RH  028%=      5-min Rain = 0
KBR1 232257Z 01015KT 07/M10 A2998 RMK A01 T00691103  RH  028%=      5-min Rain = 0
KBR1 232258Z 00014KT 07/M11 A2998 RMK A01 T00691105  RH  028%=      5-min Rain = 0
KBR1 232259Z 00015KT 07/M11 A2998 RMK A01 T00691106  RH  027%=      5-min Rain = 0
KBR1 232300Z 36016KT 07/M11 A2998 RMK A01 T00701106  RH  027%=      5-min Rain = 0
KBR1 232301Z 36017KT 07/M11 A2998 RMK A01 T00691109  RH  027%=      5-min Rain = 0
KBR1 232302Z 34016KT 07/M11 A2998 RMK A01 T00681107  RH  027%=      5-min Rain = 0
KBR1 232303Z 35013KT 07/M10 A2998 RMK A01 T00681103  RH  028%=      5-min Rain = 0
KBR1 232304Z 35015KT 07/M10 A2998 RMK A01 T00691102  RH  028%=      5-min Rain = 0
KBR1 232305Z 35013KT 07/M10 A2998 RMK A01 T00691102  RH  028%=      5-min Rain = 0
KBR1 232306Z 35015KT 07/M11 A2998 RMK A01 T00701105  RH  028%=      5-min Rain = 0
KBR1 232307Z 36014KT 07/M11 A2998 RMK A01 T00691106  RH  027%=      5-min Rain = 0
KBR1 232308Z 01012KT 07/M11 A2998 RMK A01 T00691106  RH  027%=      5-min Rain = 0
KBR1 232309Z 00016KT 07/M11 A2998 RMK A01 T00691107  RH  027%=      5-min Rain = 0
KBR1 232310Z 00017KT 07/M11 A2998 RMK A01 T00691111  RH  026%=      5-min Rain = 0
KBR1 232311Z 00014KT 07/M11 A2998 RMK A01 T00671114  RH  026%=      5-min Rain = 0
KBR1 232312Z 36012KT 07/M11 A2998 RMK A01 T00671112  RH  027%=      5-min Rain = 0
KBR1 232313Z 36014KT 07/M11 A2998 RMK A01 T00671112  RH  027%=      5-min Rain = 0
KBR1 232314Z 00015KT 07/M11 A2998 RMK A01 T00671112  RH  027%=      5-min Rain = 0
KBR1 232315Z 00015KT 07/M11 A2998 RMK A01 T00671113  RH  026%=      5-min Rain = 0
KBR1 232316Z 01014KT 07/M11 A2998 RMK A01 T00681113  RH  026%=      5-min Rain = 0
KBR1 232317Z 01013KT 07/M11 A2998 RMK A01 T00671111  RH  027%=      5-min Rain = 0
KBR1 232318Z 01012KT 07/M11 A2998 RMK A01 T00681108  RH  027%=      5-min Rain = 0
KBR1 232319Z 01012KT 07/M11 A2998 RMK A01 T00681106  RH  028%=      5-min Rain = 0
KBR1 232320Z 00011KT 07/M11 A2998 RMK A01 T00681105  RH  028%=      5-min Rain = 0
KBR1 232321Z 01010KT 07/M10 A2998 RMK A01 T00681101  RH  029%=      5-min Rain = 0
KBR1 232322Z 00009KT 07/M10 A2998 RMK A01 T00681096  RH  030%=      5-min Rain = 0
KBR1 232323Z 36012KT 07/M10 A2998 RMK A01 T00691098  RH  029%=      5-min Rain = 0
KBR1 232324Z 36011KT 07/M11 A2998 RMK A01 T00691105  RH  028%=      5-min Rain = 0
KBR1 232325Z 01010KT 07/M11 A2998 RMK A01 T00681106  RH  028%=      5-min Rain = 0
KBR1 232326Z 02011KT 07/M10 A2998 RMK A01 T00671102  RH  029%=      5-min Rain = 0
KBR1 232327Z 02011KT 07/M10 A2998 RMK A01 T00681098  RH  030%=      5-min Rain = 0
KBR1 232328Z 01010KT 07/M10 A2998 RMK A01 T00681099  RH  029%=      5-min Rain = 0
KBR1 232329Z 01012KT 07/M10 A2998 RMK A01 T00681099  RH  029%=      5-min Rain = 0
KBR1 232330Z 01010KT 07/M11 A2998 RMK A01 T00671105  RH  028%=      5-min Rain = 0
KBR1 232331Z 36009KT 07/M11 A2998 RMK A01 T00661105  RH  028%=      5-min Rain = 0
KBR1 232332Z 00010KT 07/M10 A2998 RMK A01 T00661102  RH  029%=      5-min Rain = 0
KBR1 232333Z 01011KT 07/M10 A2998 RMK A01 T00671104  RH  028%=      5-min Rain = 0
KBR1 232334Z 02012KT 07/M11 A2998 RMK A01 T00671107  RH  028%=      5-min Rain = 0
KBR1 232335Z 02010KT 07/M11 A2998 RMK A01 T00661110  RH  027%=      5-min Rain = 0
KBR1 232336Z 01012KT 07/M11 A2998 RMK A01 T00661110  RH  027%=      5-min Rain = 0
KBR1 232337Z 01011KT 07/M11 A2998 RMK A01 T00651111  RH  027%=      5-min Rain = 0
KBR1 232338Z 01009KT 07/M11 A2999 RMK A01 T00651111  RH  027%=      5-min Rain = 0
KBR1 232339Z 01008KT 06/M11 A2999 RMK A01 T00641110  RH  027%=      5-min Rain = 0
KBR1 232340Z 01009KT 07/M11 A2999 RMK A01 T00651106  RH  028%=      5-min Rain = 0
KBR1 232341Z 00009KT 07/M10 A2999 RMK A01 T00661104  RH  029%=      5-min Rain = 0
KBR1 232342Z 35011KT 07/M10 A2999 RMK A01 T00661104  RH  029%=      5-min Rain = 0
KBR1 232343Z 36011KT 07/M11 A2999 RMK A01 T00661105  RH  028%=      5-min Rain = 0
KBR1 232344Z 00011KT 07/M11 A2999 RMK A01 T00651105  RH  029%=      5-min Rain = 0
KBR1 232345Z 00011KT 06/M11 A2999 RMK A01 T00641106  RH  028%=      5-min Rain = 0
KBR1 232346Z 01011KT 06/M11 A2999 RMK A01 T00641107  RH  028%=      5-min Rain = 0
KBR1 232347Z 01011KT 06/M11 A2999 RMK A01 T00631106  RH  029%=      5-min Rain = 0
KBR1 232348Z 01011KT 06/M11 A2999 RMK A01 T00631105  RH  029%=      5-min Rain = 0
KBR1 232349Z 01010KT 06/M11 A2999 RMK A01 T00631106  RH  029%=      5-min Rain = 0
KBR1 232350Z 01011KT 06/M10 A2999 RMK A01 T00631103  RH  029%=      5-min Rain = 0
KBR1 232351Z 36013KT 06/M10 A2999 RMK A01 T00631103  RH  029%=      5-min Rain = 0
KBR1 232352Z 36012KT 06/M10 A2999 RMK A01 T00641103  RH  029%=      5-min Rain = 0
KBR1 232353Z 00011KT 06/M10 A2999 RMK A01 T00631102  RH  030%=      5-min Rain = 0
KBR1 232354Z 01010KT 06/M10 A2999 RMK A01 T00631101  RH  030%=      5-min Rain = 0
KBR1 232355Z 01009KT 06/M10 A2999 RMK A01 T00631098  RH  031%=      5-min Rain = 0
KBR1 232356Z 01008KT 06/M10 A2999 RMK A01 T00631100  RH  030%=      5-min Rain = 0
KBR1 232357Z 01009KT 06/M10 A2999 RMK A01 T00631101  RH  030%=      5-min Rain = 0
KBR1 232358Z 00008KT 06/M10 A2999 RMK A01 T00631102  RH  030%=      5-min Rain = 0
KBR1 232359Z 00008KT 06/M10 A2999 RMK A01 T00631100  RH  030%=      5-min Rain = 0
KBR1 240000Z 00008KT 06/M10 A2999 RMK A01 T00621099  RH  030%=      5-min Rain = 0
KBR1 240001Z 01011KT 06/M10 A2999 RMK A01 T00621099  RH  030%=      5-min Rain = 0
KBR1 240002Z 01010KT 06/M10 A2999 RMK A01 T00621103  RH  030%=      5-min Rain = 0
KBR1 240003Z 01010KT 06/M10 A2999 RMK A01 T00611102  RH  030%=      5-min Rain = 0
KBR1 240004Z 02011KT 06/M10 A2999 RMK A01 T00601102  RH  030%=      5-min Rain = 0
KBR1 240005Z 01009KT 06/M10 A2999 RMK A01 T00601101  RH  030%=      5-min Rain = 0
KBR1 240006Z 02010KT 06/M10 A2999 RMK A01 T00601100  RH  031%=      5-min Rain = 0
KBR1 240007Z 02009KT 06/M10 A2999 RMK A01 T00601100  RH  031%=      5-min Rain = 0
KBR1 240008Z 02011KT 06/M10 A2999 RMK A01 T00591099  RH  031%=      5-min Rain = 0
KBR1 240009Z 02010KT 06/M10 A2999 RMK A01 T00591100  RH  031%=      5-min Rain = 0
KBR1 240010Z 04010KT 06/M10 A30 RMK A01 T00581099  RH  031%=      5-min Rain = 0
KBR1 240011Z 03009KT 06/M10 A30 RMK A01 T00581100  RH  031%=      5-min Rain = 0
KBR1 240012Z 03007KT 06/M10 A30 RMK A01 T00581099  RH  031%=      5-min Rain = 0
KBR1 240013Z 03007KT 06/M10 A30 RMK A01 T00571098  RH  032%=      5-min Rain = 0
KBR1 240014Z 03008KT 06/M10 A30 RMK A01 T00571100  RH  031%=      5-min Rain = 0
KBR1 240015Z 03007KT 06/M10 A30 RMK A01 T00571099  RH  032%=      5-min Rain = 0
KBR1 240016Z 04006KT 06/M10 A30 RMK A01 T00561099  RH  032%=      5-min Rain = 0
KBR1 240017Z 03007KT 06/M10 A30 RMK A01 T00561100  RH  032%=      5-min Rain = 0
KBR1 240018Z 03007KT 06/M10 A3001 RMK A01 T00561099  RH  032%=      5-min Rain = 0
KBR1 240019Z 03006KT 06/M10 A3001 RMK A01 T00551100  RH  032%=      5-min Rain = 0
KBR1 240020Z 04005KT 06/M10 A3001 RMK A01 T00551100  RH  032%=      5-min Rain = 0
KBR1 240021Z 04005KT 05/M10 A3001 RMK A01 T00541097  RH  033%=      5-min Rain = 0
KBR1 240022Z 04005KT 05/M10 A3001 RMK A01 T00531097  RH  033%=      5-min Rain = 0
KBR1 240023Z 05005KT 05/M10 A3001 RMK A01 T00531095  RH  033%=      5-min Rain = 0
KBR1 240024Z 05005KT 05/M09 A3001 RMK A01 T00521094  RH  034%=      5-min Rain = 0
KBR1 240025Z 04004KT 05/M09 A3001 RMK A01 T00511092  RH  035%=      5-min Rain = 0
KBR1 240026Z 05004KT 05/M09 A3001 RMK A01 T00511089  RH  036%=      5-min Rain = 0
KBR1 240027Z 06004KT 05/M09 A3001 RMK A01 T00501088  RH  036%=      5-min Rain = 0
KBR1 240028Z 07005KT 05/M09 A3001 RMK A01 T00481089  RH  036%=      5-min Rain = 0
KBR1 240029Z 08006KT 05/M08 A3001 RMK A01 T00461084  RH  038%=      5-min Rain = 0
KBR1 240030Z 08006KT 05/M08 A3001 RMK A01 T00451080  RH  040%=      5-min Rain = 0
KBR1 240031Z 09006KT 04/M08 A3001 RMK A01 T00441078  RH  041%=      5-min Rain = 0
KBR1 240032Z 09006KT 04/M08 A3002 RMK A01 T00431075  RH  042%=      5-min Rain = 0
KBR1 240033Z 09006KT 04/M07 A3002 RMK A01 T00411074  RH  043%=      5-min Rain = 0
KBR1 240034Z 09007KT 04/M07 A3002 RMK A01 T00401073  RH  044%=      5-min Rain = 0
KBR1 240035Z 09007KT 04/M07 A3002 RMK A01 T00381073  RH  044%=      5-min Rain = 0
KBR1 240036Z 10007KT 04/M07 A3002 RMK A01 T00371072  RH  045%=      5-min Rain = 0
KBR1 240037Z 10007KT 04/M07 A3002 RMK A01 T00351072  RH  045%=      5-min Rain = 0
KBR1 240038Z 10006KT 04/M07 A3002 RMK A01 T00351072  RH  046%=      5-min Rain = 0
KBR1 240039Z 10007KT 03/M07 A3002 RMK A01 T00331071  RH  046%=      5-min Rain = 0
KBR1 240040Z 09007KT 03/M07 A3002 RMK A01 T00311071  RH  047%=      5-min Rain = 0
KBR1 240041Z 09007KT 03/M07 A3002 RMK A01 T00301072  RH  047%=      5-min Rain = 0
KBR1 240042Z 08007KT 03/M07 A3002 RMK A01 T00281072  RH  048%=      5-min Rain = 0
KBR1 240043Z 08006KT 03/M07 A3002 RMK A01 T00281072  RH  048%=      5-min Rain = 0
KBR1 240044Z 07006KT 03/M07 A3002 RMK A01 T00271073  RH  048%=      5-min Rain = 0
KBR1 240045Z 07007KT 03/M07 A3002 RMK A01 T00251073  RH  049%=      5-min Rain = 0
KBR1 240046Z 07007KT 02/M07 A3001 RMK A01 T00221074  RH  049%=      5-min Rain = 0
KBR1 240047Z 06007KT 02/M07 A3001 RMK A01 T00191074  RH  050%=      5-min Rain = 0
KBR1 240048Z 07008KT 02/M07 A3001 RMK A01 T00161073  RH  051%=      5-min Rain = 0
KBR1 240049Z 07008KT 01/M07 A3001 RMK A01 T00141072  RH  053%=      5-min Rain = 0
KBR1 240050Z 07008KT 01/M07 A3001 RMK A01 T00131072  RH  053%=      5-min Rain = 0
KBR1 240051Z 08008KT 01/M07 A3001 RMK A01 T00121072  RH  054%=      5-min Rain = 0
KBR1 240052Z 08008KT 01/M07 A3002 RMK A01 T00111073  RH  054%=      5-min Rain = 0
KBR1 240053Z 08008KT 01/M07 A3002 RMK A01 T00101073  RH  054%=      5-min Rain = 0
KBR1 240054Z 08008KT 01/M07 A3002 RMK A01 T00111073  RH  054%=      5-min Rain = 0
KBR1 240055Z 08008KT 01/M07 A3002 RMK A01 T00111073  RH  054%=      5-min Rain = 0
KBR1 240056Z 08008KT 01/M07 A3002 RMK A01 T00111073  RH  054%=      5-min Rain = 0
KBR1 240057Z 08008KT 01/M07 A3002 RMK A01 T00111073  RH  054%=      5-min Rain = 0
KBR1 240058Z 08008KT 01/M07 A3002 RMK A01 T00111072  RH  054%=      5-min Rain = 0
KBR1 240059Z 08008KT 01/M07 A3002 RMK A01 T00111072  RH  054%=      5-min Rain = 0
KBR1 240100Z 08008KT 01/M07 A3002 RMK A01 T00091073  RH  054%=      5-min Rain = 0
KBR1 240101Z 08008KT 01/M07 A3002 RMK A01 T00081073  RH  055%=      5-min Rain = 0
KBR1 240102Z 08008KT 01/M07 A3002 RMK A01 T00071072  RH  055%=      5-min Rain = 0
KBR1 240103Z 08007KT 01/M07 A3002 RMK A01 T00061072  RH  056%=      5-min Rain = 0
KBR1 240104Z 08007KT 01/M07 A3002 RMK A01 T00051072  RH  056%=      5-min Rain = 0
KBR1 240105Z 08007KT 00/M07 A3002 RMK A01 T00041072  RH  057%=      5-min Rain = 0
KBR1 240106Z 08007KT 00/M07 A3002 RMK A01 T00031072  RH  057%=      5-min Rain = 0
KBR1 240107Z 08007KT 00/M07 A3002 RMK A01 T00021072  RH  057%=      5-min Rain = 0
KBR1 240108Z 08007KT 00/M07 A3003 RMK A01 T00021072  RH  058%=      5-min Rain = 0
KBR1 240109Z 08007KT 00/M07 A3003 RMK A01 T00011072  RH  058%=      5-min Rain = 0
KBR1 240110Z 08007KT 00/M07 A3003 RMK A01 T00011073  RH  058%=      5-min Rain = 0
KBR1 240111Z 07007KT 00/07 A3003 RMK A01 T00-00-73  RH  058%=      5-min Rain = 0
KBR1 240112Z 07007KT M00/M07 A3003 RMK A01 T10011073  RH  058%=      5-min Rain = 0
KBR1 240113Z 07007KT M00/M07 A3003 RMK A01 T10011073  RH  058%=      5-min Rain = 0
KBR1 240114Z 07007KT M00/M07 A3003 RMK A01 T10021073  RH  059%=      5-min Rain = 0
KBR1 240115Z 07007KT M00/M07 A3003 RMK A01 T10041074  RH  059%=      5-min Rain = 0
KBR1 240116Z 06006KT M01/M07 A3003 RMK A01 T10071074  RH  060%=      5-min Rain = 0
KBR1 240117Z 05005KT M01/M07 A3003 RMK A01 T10101074  RH  062%=      5-min Rain = 0
KBR1 240118Z 07007KT M01/M07 A3003 RMK A01 T10101073  RH  062%=      5-min Rain = 0
KBR1 240119Z 07007KT M01/M07 A3003 RMK A01 T10101072  RH  063%=      5-min Rain = 0
KBR1 240120Z 07007KT M01/M07 A3004 RMK A01 T10091072  RH  063%=      5-min Rain = 0
KBR1 240121Z 07008KT M01/M07 A3004 RMK A01 T10091071  RH  063%=      5-min Rain = 0
KBR1 240122Z 07008KT M01/M07 A3004 RMK A01 T10081071  RH  062%=      5-min Rain = 0
KBR1 240123Z 07008KT M01/M07 A3004 RMK A01 T10061071  RH  061%=      5-min Rain = 0
KBR1 240124Z 07009KT M01/M07 A3004 RMK A01 T10051072  RH  061%=      5-min Rain = 0
KBR1 240125Z 07010KT M00/M07 A3004 RMK A01 T10031072  RH  060%=      5-min Rain = 0
KBR1 240126Z 07010KT 00/M07 A3004 RMK A01 T00011072  RH  058%=      5-min Rain = 0
KBR1 240127Z 07009KT 01/M07 A3004 RMK A01 T00051073  RH  056%=      5-min Rain = 0
KBR1 240128Z 07009KT 01/M07 A3004 RMK A01 T00071074  RH  055%=      5-min Rain = 0
KBR1 240129Z 07009KT 01/M07 A3004 RMK A01 T00071074  RH  055%=      5-min Rain = 0
KBR1 240130Z 07009KT 01/M07 A3004 RMK A01 T00061074  RH  055%=      5-min Rain = 0
KBR1 240131Z 07010KT 01/M08 A3004 RMK A01 T00051075  RH  055%=      5-min Rain = 0
KBR1 240132Z 07010KT 00/M08 A3004 RMK A01 T00041075  RH  055%=      5-min Rain = 0
KBR1 240133Z 06010KT 00/M08 A3004 RMK A01 T00041075  RH  056%=      5-min Rain = 0
KBR1 240134Z 06011KT 00/M08 A3004 RMK A01 T00031075  RH  056%=      5-min Rain = 0
KBR1 240135Z 05010KT 00/M08 A3004 RMK A01 T00031075  RH  056%=      5-min Rain = 0
KBR1 240136Z 05011KT 00/M08 A3004 RMK A01 T00021076  RH  055%=      5-min Rain = 0
KBR1 240137Z 05010KT 00/M08 A3004 RMK A01 T00021076  RH  055%=      5-min Rain = 0
KBR1 240138Z 05010KT 00/M08 A3004 RMK A01 T00021076  RH  056%=      5-min Rain = 0
KBR1 240139Z 05010KT 00/M08 A3005 RMK A01 T00021077  RH  055%=      5-min Rain = 0
KBR1 240140Z 05011KT 00/M08 A3005 RMK A01 T00021078  RH  055%=      5-min Rain = 0
KBR1 240141Z 05010KT 00/M08 A3005 RMK A01 T00021078  RH  055%=      5-min Rain = 0
KBR1 240142Z 05010KT 00/M08 A3005 RMK A01 T00021078  RH  055%=      5-min Rain = 0
KBR1 240143Z 06010KT 00/M08 A3005 RMK A01 T00011079  RH  055%=      5-min Rain = 0
KBR1 240144Z 06009KT 00/M08 A3005 RMK A01 T00011079  RH  055%=      5-min Rain = 0
KBR1 240145Z 06009KT 00/M08 A3005 RMK A01 T00011080  RH  055%=      5-min Rain = 0
KBR1 240146Z 06008KT 00/08 A3006 RMK A01 T00-00-80  RH  055%=      5-min Rain = 0
KBR1 240147Z 07009KT M00/M08 A3006 RMK A01 T10011081  RH  055%=      5-min Rain = 0
KBR1 240148Z 06009KT M00/M08 A3006 RMK A01 T10011081  RH  055%=      5-min Rain = 0
KBR1 240149Z 06009KT M00/M08 A3006 RMK A01 T10011082  RH  055%=      5-min Rain = 0
KBR1 240150Z 06009KT M00/M08 A3006 RMK A01 T10011082  RH  054%=      5-min Rain = 0
KBR1 240151Z 06009KT M00/M08 A3006 RMK A01 T10011082  RH  055%=      5-min Rain = 0
KBR1 240152Z 06010KT M00/M08 A3006 RMK A01 T10021082  RH  055%=      5-min Rain = 0
KBR1 240153Z 06010KT M00/M08 A3006 RMK A01 T10031082  RH  055%=      5-min Rain = 0
KBR1 240154Z 06010KT M00/M08 A3006 RMK A01 T10031082  RH  055%=      5-min Rain = 0
KBR1 240155Z 07010KT M00/M08 A3006 RMK A01 T10031082  RH  055%=      5-min Rain = 0
KBR1 240156Z 07010KT M00/M08 A3006 RMK A01 T10031082  RH  055%=      5-min Rain = 0
KBR1 240157Z 07009KT M00/M08 A3006 RMK A01 T10041082  RH  056%=      5-min Rain = 0
KBR1 240158Z 07009KT M01/M08 A3006 RMK A01 T10051082  RH  056%=      5-min Rain = 0
KBR1 240159Z 08009KT M01/M08 A3006 RMK A01 T10061083  RH  056%=      5-min Rain = 0
KBR1 240200Z 08009KT M01/M08 A3006 RMK A01 T10051083  RH  056%=      5-min Rain = 0
KBR1 240201Z 08009KT M01/M08 A3006 RMK A01 T10061083  RH  056%=      5-min Rain = 0
KBR1 240202Z 08009KT M01/M08 A3006 RMK A01 T10061083  RH  056%=      5-min Rain = 0
KBR1 240203Z 08009KT M01/M08 A3006 RMK A01 T10071083  RH  056%=      5-min Rain = 0
KBR1 240204Z 08009KT M01/M08 A3006 RMK A01 T10071084  RH  056%=      5-min Rain = 0
KBR1 240205Z 07009KT M01/M08 A3006 RMK A01 T10081083  RH  057%=      5-min Rain = 0
KBR1 240206Z 07009KT M01/M08 A3006 RMK A01 T10101083  RH  057%=      5-min Rain = 0
KBR1 240207Z 07009KT M01/M08 A3007 RMK A01 T10111084  RH  058%=      5-min Rain = 0
KBR1 240208Z 07009KT M01/M08 A3007 RMK A01 T10111084  RH  058%=      5-min Rain = 0
KBR1 240209Z 07009KT M01/M08 A3007 RMK A01 T10121084  RH  058%=      5-min Rain = 0
KBR1 240210Z 07009KT M01/M08 A3007 RMK A01 T10131084  RH  059%=      5-min Rain = 0
KBR1 240211Z 07009KT M01/M08 A3007 RMK A01 T10141083  RH  059%=      5-min Rain = 0
KBR1 240212Z 07009KT M02/M08 A3007 RMK A01 T10151083  RH  060%=      5-min Rain = 0
KBR1 240213Z 07009KT M02/M08 A3007 RMK A01 T10161082  RH  061%=      5-min Rain = 0
KBR1 240214Z 06008KT M02/M08 A3007 RMK A01 T10171082  RH  061%=      5-min Rain = 0
KBR1 240215Z 06009KT M02/M08 A3007 RMK A01 T10181082  RH  062%=      5-min Rain = 0
KBR1 240216Z 05008KT M02/M08 A3007 RMK A01 T10191082  RH  062%=      5-min Rain = 0
KBR1 240217Z 05008KT M02/M08 A3007 RMK A01 T10191082  RH  062%=      5-min Rain = 0
KBR1 240218Z 05008KT M02/M08 A3007 RMK A01 T10201082  RH  062%=      5-min Rain = 0
KBR1 240219Z 05008KT M02/M08 A3007 RMK A01 T10211082  RH  063%=      5-min Rain = 0
KBR1 240220Z 04008KT M02/M08 A3007 RMK A01 T10221082  RH  063%=      5-min Rain = 0
KBR1 240221Z 04008KT M02/M08 A3007 RMK A01 T10231082  RH  064%=      5-min Rain = 0
KBR1 240222Z 04008KT M02/M08 A3007 RMK A01 T10241082  RH  064%=      5-min Rain = 0
KBR1 240223Z 04008KT M02/M08 A3007 RMK A01 T10241082  RH  065%=      5-min Rain = 0
KBR1 240224Z 05009KT M02/M08 A3007 RMK A01 T10241082  RH  065%=      5-min Rain = 0
KBR1 240225Z 05008KT M02/M08 A3007 RMK A01 T10241083  RH  064%=      5-min Rain = 0
KBR1 240226Z 05008KT M03/M08 A3008 RMK A01 T10251083  RH  064%=      5-min Rain = 0
KBR1 240227Z 05008KT M03/M08 A3008 RMK A01 T10251084  RH  064%=      5-min Rain = 0
KBR1 240228Z 05008KT M03/M08 A3008 RMK A01 T10251084  RH  064%=      5-min Rain = 0
KBR1 240229Z 06008KT M02/M09 A3008 RMK A01 T10241085  RH  063%=      5-min Rain = 0
KBR1 240230Z 06007KT M02/M09 A3008 RMK A01 T10221085  RH  062%=      5-min Rain = 0
KBR1 240231Z 06007KT M02/M08 A3009 RMK A01 T10211084  RH  062%=      5-min Rain = 0
KBR1 240232Z 06007KT M02/M08 A3009 RMK A01 T10201084  RH  061%=      5-min Rain = 0
KBR1 240233Z 06007KT M02/M09 A3009 RMK A01 T10201085  RH  061%=      5-min Rain = 0
KBR1 240234Z 06008KT M02/M09 A3009 RMK A01 T10191085  RH  061%=      5-min Rain = 0
KBR1 240235Z 06008KT M02/M09 A3009 RMK A01 T10201085  RH  061%=      5-min Rain = 0
KBR1 240236Z 06007KT M02/M09 A3009 RMK A01 T10221086  RH  062%=      5-min Rain = 0
KBR1 240237Z 06007KT M02/M09 A3009 RMK A01 T10231085  RH  062%=      5-min Rain = 0
KBR1 240238Z 06007KT M02/M09 A3009 RMK A01 T10241085  RH  063%=      5-min Rain = 0
KBR1 240239Z 06007KT M03/M09 A3009 RMK A01 T10251085  RH  063%=      5-min Rain = 0
KBR1 240240Z 05006KT M03/M09 A3009 RMK A01 T10261085  RH  064%=      5-min Rain = 0
KBR1 240241Z 05006KT M03/M09 A301 RMK A01 T10271085  RH  064%=      5-min Rain = 0
KBR1 240242Z 05007KT M03/M09 A301 RMK A01 T10281085  RH  065%=      5-min Rain = 0
KBR1 240243Z 05007KT M03/M08 A301 RMK A01 T10291084  RH  066%=      5-min Rain = 0
KBR1 240244Z 05007KT M03/M08 A301 RMK A01 T10301084  RH  066%=      5-min Rain = 0
KBR1 240245Z 05007KT M03/M08 A301 RMK A01 T10311084  RH  067%=      5-min Rain = 0
KBR1 240246Z 05007KT M03/M08 A301 RMK A01 T10311084  RH  067%=      5-min Rain = 0
KBR1 240247Z 06007KT M03/M09 A301 RMK A01 T10311085  RH  067%=      5-min Rain = 0
KBR1 240248Z 06007KT M03/M09 A301 RMK A01 T10311085  RH  067%=      5-min Rain = 0
KBR1 240249Z 06007KT M03/M09 A301 RMK A01 T10311085  RH  066%=      5-min Rain = 0
KBR1 240250Z 06007KT M03/M09 A301 RMK A01 T10301085  RH  066%=      5-min Rain = 0
KBR1 240251Z 06007KT M03/M09 A301 RMK A01 T10301085  RH  066%=      5-min Rain = 0
KBR1 240252Z 05008KT M03/M09 A301 RMK A01 T10301085  RH  066%=      5-min Rain = 0
KBR1 240253Z 05007KT M03/M09 A3011 RMK A01 T10301085  RH  066%=      5-min Rain = 0
KBR1 240254Z 05007KT M03/M09 A3011 RMK A01 T10311085  RH  066%=      5-min Rain = 0
KBR1 240255Z 05007KT M03/M09 A3011 RMK A01 T10321085  RH  067%=      5-min Rain = 0
KBR1 240256Z 06007KT M03/M08 A3011 RMK A01 T10321084  RH  067%=      5-min Rain = 0
KBR1 240257Z 06007KT M03/M08 A3011 RMK A01 T10321084  RH  067%=      5-min Rain = 0
KBR1 240258Z 06007KT M03/M08 A3011 RMK A01 T10321084  RH  067%=      5-min Rain = 0
KBR1 240259Z 06008KT M03/M08 A3011 RMK A01 T10311084  RH  067%=      5-min Rain = 0
KBR1 240300Z 06008KT M03/M08 A3011 RMK A01 T10311084  RH  067%=      5-min Rain = 0
KBR1 240301Z 05007KT M03/M08 A3011 RMK A01 T10301084  RH  067%=      5-min Rain = 0
KBR1 240302Z 06007KT M03/M08 A3011 RMK A01 T10301083  RH  067%=      5-min Rain = 0
KBR1 240303Z 06006KT M03/M08 A3011 RMK A01 T10301082  RH  067%=      5-min Rain = 0
KBR1 240304Z 06007KT M03/M08 A3011 RMK A01 T10311083  RH  067%=      5-min Rain = 0
KBR1 240305Z 07007KT M03/M08 A3011 RMK A01 T10311083  RH  067%=      5-min Rain = 0
KBR1 240306Z 07007KT M03/M08 A3011 RMK A01 T10311084  RH  067%=      5-min Rain = 0
KBR1 240307Z 07007KT M03/M08 A3011 RMK A01 T10311084  RH  067%=      5-min Rain = 0
KBR1 240308Z 06006KT M03/M08 A3011 RMK A01 T10311084  RH  067%=      5-min Rain = 0
KBR1 240309Z 06006KT M03/M09 A3011 RMK A01 T10321085  RH  067%=      5-min Rain = 0
KBR1 240310Z 06005KT M03/M09 A3011 RMK A01 T10321085  RH  067%=      5-min Rain = 0
KBR1 240311Z 07005KT M03/M09 A3011 RMK A01 T10331085  RH  067%=      5-min Rain = 0
KBR1 240312Z 07006KT M03/M09 A3012 RMK A01 T10341086  RH  068%=      5-min Rain = 0
KBR1 240313Z 07007KT M04/M09 A3012 RMK A01 T10351086  RH  068%=      5-min Rain = 0
KBR1 240314Z 08007KT M04/M09 A3012 RMK A01 T10361086  RH  068%=      5-min Rain = 0
KBR1 240315Z 07007KT M04/M09 A3012 RMK A01 T10351086  RH  068%=      5-min Rain = 0
KBR1 240316Z 07007KT M03/M09 A3012 RMK A01 T10341086  RH  067%=      5-min Rain = 0
KBR1 240317Z 07006KT M03/M09 A3012 RMK A01 T10341085  RH  067%=      5-min Rain = 0
KBR1 240318Z 07005KT M04/M09 A3012 RMK A01 T10361085  RH  068%=      5-min Rain = 0
KBR1 240319Z 07006KT M04/M09 A3012 RMK A01 T10391086  RH  070%=      5-min Rain = 0
KBR1 240320Z 07006KT M04/M09 A3012 RMK A01 T10411087  RH  070%=      5-min Rain = 0
KBR1 240321Z 07006KT M04/M09 A3012 RMK A01 T10411086  RH  071%=      5-min Rain = 0
KBR1 240322Z 07006KT M04/M09 A3012 RMK A01 T10411086  RH  071%=      5-min Rain = 0
KBR1 240323Z 06005KT M04/M09 A3012 RMK A01 T10421086  RH  071%=      5-min Rain = 0
KBR1 240324Z 05005KT M04/M09 A3012 RMK A01 T10431086  RH  072%=      5-min Rain = 0
KBR1 240325Z 06005KT M04/M09 A3012 RMK A01 T10431085  RH  072%=      5-min Rain = 0
KBR1 240326Z 05005KT M04/M09 A3012 RMK A01 T10431085  RH  072%=      5-min Rain = 0
KBR1 240327Z 05005KT M04/M09 A3012 RMK A01 T10431085  RH  073%=      5-min Rain = 0
KBR1 240328Z 05006KT M04/M09 A3012 RMK A01 T10441085  RH  073%=      5-min Rain = 0
KBR1 240329Z 05006KT M04/M09 A3012 RMK A01 T10441086  RH  073%=      5-min Rain = 0
KBR1 240330Z 05006KT M04/M09 A3012 RMK A01 T10441085  RH  073%=      5-min Rain = 0
KBR1 240331Z 05006KT M04/M09 A3012 RMK A01 T10441085  RH  073%=      5-min Rain = 0
KBR1 240332Z 05006KT M04/M09 A3012 RMK A01 T10441085  RH  073%=      5-min Rain = 0
KBR1 240333Z 05006KT M04/M09 A3012 RMK A01 T10441085  RH  073%=      5-min Rain = 0
KBR1 240334Z 05006KT M05/M09 A3012 RMK A01 T10451086  RH  073%=      5-min Rain = 0
KBR1 240335Z 05006KT M05/M09 A3012 RMK A01 T10451087  RH  073%=      5-min Rain = 0
KBR1 240336Z 05006KT M05/M09 A3012 RMK A01 T10461087  RH  073%=      5-min Rain = 0
KBR1 240337Z 05006KT M05/M09 A3012 RMK A01 T10461087  RH  073%=      5-min Rain = 0
KBR1 240338Z 05006KT M05/M09 A3012 RMK A01 T10461087  RH  073%=      5-min Rain = 0
KBR1 240339Z 05006KT M05/M09 A3012 RMK A01 T10451087  RH  073%=      5-min Rain = 0
KBR1 240340Z 05006KT M04/M09 A3013 RMK A01 T10441087  RH  072%=      5-min Rain = 0
KBR1 240341Z 05006KT M04/M09 A3013 RMK A01 T10441087  RH  072%=      5-min Rain = 0
KBR1 240342Z 05006KT M04/M09 A3013 RMK A01 T10441087  RH  072%=      5-min Rain = 0
KBR1 240343Z 06006KT M04/M09 A3013 RMK A01 T10441087  RH  072%=      5-min Rain = 0
KBR1 240344Z 06006KT M04/M09 A3013 RMK A01 T10431087  RH  072%=      5-min Rain = 0
KBR1 240345Z 06006KT M04/M09 A3013 RMK A01 T10441087  RH  072%=      5-min Rain = 0
KBR1 240346Z 06005KT M04/M09 A3013 RMK A01 T10441087  RH  072%=      5-min Rain = 0
KBR1 240347Z 06006KT M04/M09 A3013 RMK A01 T10431086  RH  072%=      5-min Rain = 0
KBR1 240348Z 06006KT M04/M09 A3013 RMK A01 T10421087  RH  071%=      5-min Rain = 0
KBR1 240349Z 07006KT M04/M09 A3013 RMK A01 T10421087  RH  071%=      5-min Rain = 0
KBR1 240350Z 06005KT M04/M09 A3013 RMK A01 T10421087  RH  071%=      5-min Rain = 0
KBR1 240351Z 06005KT M04/M09 A3014 RMK A01 T10421087  RH  070%=      5-min Rain = 0
KBR1 240352Z 06005KT M04/M09 A3014 RMK A01 T10421088  RH  070%=      5-min Rain = 0
KBR1 240353Z 06005KT M04/M09 A3014 RMK A01 T10411088  RH  070%=      5-min Rain = 0
KBR1 240354Z 07005KT M04/M09 A3014 RMK A01 T10411089  RH  069%=      5-min Rain = 0
KBR1 240355Z 07005KT M04/M09 A3014 RMK A01 T10411089  RH  069%=      5-min Rain = 0
KBR1 240356Z 07005KT M04/M09 A3014 RMK A01 T10411089  RH  069%=      5-min Rain = 0
KBR1 240357Z 06005KT M04/M09 A3014 RMK A01 T10401089  RH  069%=      5-min Rain = 0
KBR1 240358Z 06005KT M04/M09 A3014 RMK A01 T10401089  RH  069%=      5-min Rain = 0
KBR1 240359Z 06005KT M04/M09 A3014 RMK A01 T10401090  RH  068%=      5-min Rain = 0
KBR1 240400Z 06005KT M04/M09 A3014 RMK A01 T10391090  RH  068%=      5-min Rain = 0
KBR1 240401Z 06005KT M04/M09 A3014 RMK A01 T10391090  RH  068%=      5-min Rain = 0
KBR1 240402Z 06004KT M04/M09 A3014 RMK A01 T10401090  RH  068%=      5-min Rain = 0
KBR1 240403Z 06004KT M04/M09 A3014 RMK A01 T10411089  RH  069%=      5-min Rain = 0
KBR1 240404Z 06004KT M04/M09 A3014 RMK A01 T10431089  RH  070%=      5-min Rain = 0
KBR1 240405Z 05004KT M04/M09 A3014 RMK A01 T10441089  RH  071%=      5-min Rain = 0
KBR1 240406Z 05004KT M04/M09 A3014 RMK A01 T10441090  RH  071%=      5-min Rain = 0
KBR1 240407Z 05004KT M05/M09 A3014 RMK A01 T10451090  RH  071%=      5-min Rain = 0
KBR1 240408Z 05004KT M05/M09 A3014 RMK A01 T10451090  RH  071%=      5-min Rain = 0
KBR1 240409Z 05004KT M05/M09 A3014 RMK A01 T10461090  RH  071%=      5-min Rain = 0
KBR1 240410Z 05004KT M05/M09 A3014 RMK A01 T10461090  RH  071%=      5-min Rain = 0
KBR1 240411Z 05003KT M05/M09 A3015 RMK A01 T10461090  RH  071%=      5-min Rain = 0
KBR1 240412Z 05003KT M05/M09 A3015 RMK A01 T10461090  RH  071%=      5-min Rain = 0
KBR1 240413Z 04003KT M05/M09 A3015 RMK A01 T10461090  RH  072%=      5-min Rain = 0
KBR1 240414Z 02002KT M05/M09 A3015 RMK A01 T10461090  RH  072%=      5-min Rain = 0
KBR1 240415Z 30000KT M05/M09 A3015 RMK A01 T10461089  RH  072%=      5-min Rain = 0
KBR1 240416Z 00000KT M05/M09 A3015 RMK A01 T10461088  RH  072%=      5-min Rain = 0
KBR1 240417Z 27001KT M05/M09 A3015 RMK A01 T10451088  RH  072%=      5-min Rain = 0
KBR1 240418Z 27001KT M05/M09 A3015 RMK A01 T10451087  RH  073%=      5-min Rain = 0
KBR1 240419Z 28001KT M05/M09 A3015 RMK A01 T10461087  RH  073%=      5-min Rain = 0
KBR1 240420Z 27001KT M05/M09 A3015 RMK A01 T10471088  RH  073%=      5-min Rain = 0
KBR1 240421Z 25001KT M05/M09 A3016 RMK A01 T10471088  RH  073%=      5-min Rain = 0
KBR1 240422Z 26001KT M05/M09 A3016 RMK A01 T10491088  RH  074%=      5-min Rain = 0
KBR1 240423Z 25001KT M05/M09 A3016 RMK A01 T10511089  RH  075%=      5-min Rain = 0
KBR1 240424Z 24001KT M05/M09 A3016 RMK A01 T10511089  RH  075%=      5-min Rain = 0
KBR1 240425Z 22001KT M05/M09 A3016 RMK A01 T10511088  RH  075%=      5-min Rain = 0
KBR1 240426Z 21002KT M05/M09 A3016 RMK A01 T10491087  RH  074%=      5-min Rain = 0
KBR1 240427Z 19002KT M05/M09 A3016 RMK A01 T10461087  RH  073%=      5-min Rain = 0
KBR1 240428Z 19001KT M05/M09 A3016 RMK A01 T10451088  RH  072%=      5-min Rain = 0
KBR1 240429Z 17001KT M05/M09 A3017 RMK A01 T10451089  RH  072%=      5-min Rain = 0
KBR1 240430Z 17001KT M05/M09 A3017 RMK A01 T10451089  RH  072%=      5-min Rain = 0
KBR1 240431Z 17002KT M05/M09 A3017 RMK A01 T10451088  RH  072%=      5-min Rain = 0
KBR1 240432Z 15002KT M04/M09 A3017 RMK A01 T10441088  RH  071%=      5-min Rain = 0
KBR1 240433Z 15002KT M04/M09 A3017 RMK A01 T10421088  RH  071%=      5-min Rain = 0
KBR1 240434Z 14002KT M04/M09 A3017 RMK A01 T10411088  RH  070%=      5-min Rain = 0
KBR1 240435Z 14003KT M04/M09 A3017 RMK A01 T10401089  RH  069%=      5-min Rain = 0
KBR1 240436Z 14003KT M04/M09 A3017 RMK A01 T10391089  RH  068%=      5-min Rain = 0
KBR1 240437Z 14004KT M04/M09 A3017 RMK A01 T10381090  RH  067%=      5-min Rain = 0
KBR1 240438Z 13004KT M04/M09 A3017 RMK A01 T10381090  RH  067%=      5-min Rain = 0
KBR1 240439Z 13004KT M04/M09 A3017 RMK A01 T10381090  RH  067%=      5-min Rain = 0
KBR1 240440Z 13004KT M04/M09 A3018 RMK A01 T10401090  RH  068%=      5-min Rain = 0
KBR1 240441Z 14004KT M04/M09 A3018 RMK A01 T10411090  RH  069%=      5-min Rain = 0
KBR1 240442Z 14003KT M04/M09 A3018 RMK A01 T10421090  RH  070%=      5-min Rain = 0
KBR1 240443Z 14002KT M04/M09 A3018 RMK A01 T10431090  RH  070%=      5-min Rain = 0
KBR1 240444Z 15001KT M04/M09 A3018 RMK A01 T10431090  RH  070%=      5-min Rain = 0
KBR1 240445Z 15001KT M04/M09 A3018 RMK A01 T10441090  RH  070%=      5-min Rain = 0
KBR1 240446Z 16001KT M04/M09 A3018 RMK A01 T10431091  RH  069%=      5-min Rain = 0
KBR1 240447Z 19000KT M04/M09 A3018 RMK A01 T10431091  RH  069%=      5-min Rain = 0
KBR1 240448Z 20001KT M04/M09 A3018 RMK A01 T10431091  RH  069%=      5-min Rain = 0
KBR1 240449Z 21000KT M04/M09 A3018 RMK A01 T10421091  RH  069%=      5-min Rain = 0
KBR1 240450Z 00000KT M04/M09 A3018 RMK A01 T10421091  RH  068%=      5-min Rain = 0
KBR1 240451Z 00000KT M04/M09 A3018 RMK A01 T10411092  RH  068%=      5-min Rain = 0
KBR1 240452Z 14001KT M04/M09 A3018 RMK A01 T10401091  RH  068%=      5-min Rain = 0
KBR1 240453Z 12001KT M04/M09 A3018 RMK A01 T10391091  RH  067%=      5-min Rain = 0
KBR1 240454Z 12001KT M04/M09 A3018 RMK A01 T10381090  RH  067%=      5-min Rain = 0
KBR1 240455Z 12001KT M04/M09 A3018 RMK A01 T10391089  RH  068%=      5-min Rain = 0
KBR1 240456Z 12001KT M04/M09 A3018 RMK A01 T10411088  RH  069%=      5-min Rain = 0
KBR1 240457Z 12001KT M04/M09 A3018 RMK A01 T10421088  RH  070%=      5-min Rain = 0
KBR1 240458Z 12001KT M04/M09 A3018 RMK A01 T10431089  RH  071%=      5-min Rain = 0
KBR1 240459Z 12000KT M05/M09 A3018 RMK A01 T10451089  RH  071%=      5-min Rain = 0
KBR1 240500Z 12000KT M05/M09 A3018 RMK A01 T10461090  RH  072%=      5-min Rain = 0
KBR1 240501Z 12000KT M05/M09 A3018 RMK A01 T10471090  RH  072%=      5-min Rain = 0
KBR1 240502Z 08001KT M05/M09 A3018 RMK A01 T10471089  RH  073%=      5-min Rain = 0
KBR1 240503Z 08001KT M05/M09 A3018 RMK A01 T10481089  RH  073%=      5-min Rain = 0
KBR1 240504Z 08001KT M05/M09 A3018 RMK A01 T10491090  RH  073%=      5-min Rain = 0
KBR1 240505Z 07001KT M05/M09 A3018 RMK A01 T10501089  RH  074%=      5-min Rain = 0
KBR1 240506Z 06001KT M05/M09 A3018 RMK A01 T10511090  RH  074%=      5-min Rain = 0
KBR1 240507Z 03002KT M05/M09 A3018 RMK A01 T10511090  RH  074%=      5-min Rain = 0
KBR1 240508Z 03002KT M05/M09 A3018 RMK A01 T10511090  RH  075%=      5-min Rain = 0
KBR1 240509Z 02002KT M05/M09 A3018 RMK A01 T10521090  RH  075%=      5-min Rain = 0
KBR1 240510Z 01002KT M05/M09 A3018 RMK A01 T10511090  RH  074%=      5-min Rain = 0
KBR1 240511Z 02002KT M05/M09 A3018 RMK A01 T10501089  RH  074%=      5-min Rain = 0
KBR1 240512Z 02002KT M05/M09 A3018 RMK A01 T10511090  RH  074%=      5-min Rain = 0
KBR1 240513Z 02002KT M05/M09 A3019 RMK A01 T10501090  RH  074%=      5-min Rain = 0
KBR1 240514Z 03002KT M05/M09 A3019 RMK A01 T10501090  RH  074%=      5-min Rain = 0
KBR1 240515Z 02002KT M05/M09 A3019 RMK A01 T10491089  RH  073%=      5-min Rain = 0
KBR1 240516Z 01002KT M05/M09 A3019 RMK A01 T10491089  RH  073%=      5-min Rain = 0
KBR1 240517Z 01002KT M05/M09 A3019 RMK A01 T10491089  RH  074%=      5-min Rain = 0
KBR1 240518Z 00002KT M05/M09 A3019 RMK A01 T10491089  RH  074%=      5-min Rain = 0
KBR1 240519Z 01002KT M05/M09 A3019 RMK A01 T10491089  RH  074%=      5-min Rain = 0
KBR1 240520Z 01002KT M05/M09 A3019 RMK A01 T10491088  RH  074%=      5-min Rain = 0
KBR1 240521Z 01002KT M05/M09 A3019 RMK A01 T10491088  RH  074%=      5-min Rain = 0
KBR1 240522Z 01001KT M05/M09 A3019 RMK A01 T10491088  RH  074%=      5-min Rain = 0
KBR1 240523Z 01002KT M05/M09 A3019 RMK A01 T10491088  RH  074%=      5-min Rain = 0
KBR1 240524Z 36002KT M05/M09 A3019 RMK A01 T10491088  RH  074%=      5-min Rain = 0
KBR1 240525Z 35002KT M05/M09 A3019 RMK A01 T10491088  RH  074%=      5-min Rain = 0
KBR1 240526Z 35002KT M05/M09 A3019 RMK A01 T10491088  RH  074%=      5-min Rain = 0
KBR1 240527Z 35002KT M05/M09 A3019 RMK A01 T10501089  RH  074%=      5-min Rain = 0
KBR1 240528Z 35002KT M05/M09 A3019 RMK A01 T10501089  RH  074%=      5-min Rain = 0
KBR1 240529Z 35002KT M05/M09 A3019 RMK A01 T10511090  RH  074%=      5-min Rain = 0
KBR1 240530Z 35002KT M05/M09 A3019 RMK A01 T10511090  RH  074%=      5-min Rain = 0
KBR1 240531Z 34003KT M05/M09 A3019 RMK A01 T10521090  RH  074%=      5-min Rain = 0
KBR1 240532Z 34003KT M05/M09 A3019 RMK A01 T10531091  RH  075%=      5-min Rain = 0
KBR1 240533Z 33003KT M05/M09 A3019 RMK A01 T10531091  RH  075%=      5-min Rain = 0
KBR1 240534Z 32003KT M05/M09 A3019 RMK A01 T10531090  RH  075%=      5-min Rain = 0
KBR1 240535Z 33004KT M05/M09 A3019 RMK A01 T10531091  RH  075%=      5-min Rain = 0
KBR1 240536Z 34004KT M05/M09 A3019 RMK A01 T10531091  RH  075%=      5-min Rain = 0
KBR1 240537Z 34004KT M05/M09 A3019 RMK A01 T10541091  RH  075%=      5-min Rain = 0
KBR1 240538Z 34004KT M06/M09 A3019 RMK A01 T10551091  RH  076%=      5-min Rain = 0
KBR1 240539Z 36004KT M06/M09 A3019 RMK A01 T10561091  RH  077%=      5-min Rain = 0
KBR1 240540Z 36004KT M06/M09 A3019 RMK A01 T10561091  RH  077%=      5-min Rain = 0
KBR1 240541Z 35003KT M06/M09 A3019 RMK A01 T10571091  RH  077%=      5-min Rain = 0
KBR1 240542Z 35003KT M06/M09 A3019 RMK A01 T10571091  RH  077%=      5-min Rain = 0
KBR1 240543Z 36002KT M06/M09 A3019 RMK A01 T10561091  RH  076%=      5-min Rain = 0
KBR1 240544Z 36002KT M05/M09 A3019 RMK A01 T10541091  RH  076%=      5-min Rain = 0
KBR1 240545Z 34003KT M05/M09 A302 RMK A01 T10531091  RH  075%=      5-min Rain = 0
KBR1 240546Z 34004KT M05/M09 A302 RMK A01 T10521091  RH  074%=      5-min Rain = 0
KBR1 240547Z 34003KT M05/M09 A302 RMK A01 T10521092  RH  074%=      5-min Rain = 0
KBR1 240548Z 34002KT M06/M09 A302 RMK A01 T10551092  RH  075%=      5-min Rain = 0
KBR1 240549Z 32003KT M06/M09 A302 RMK A01 T10571093  RH  076%=      5-min Rain = 0
KBR1 240550Z 32003KT M06/M09 A302 RMK A01 T10581092  RH  077%=      5-min Rain = 0
KBR1 240551Z 33003KT M06/M09 A302 RMK A01 T10581092  RH  077%=      5-min Rain = 0
KBR1 240552Z 33003KT M06/M09 A302 RMK A01 T10571092  RH  077%=      5-min Rain = 0
KBR1 240553Z 34003KT M06/M09 A302 RMK A01 T10551091  RH  076%=      5-min Rain = 0
KBR1 240554Z 34003KT M05/M09 A3019 RMK A01 T10531090  RH  075%=      5-min Rain = 0
KBR1 240555Z 34002KT M05/M09 A3019 RMK A01 T10511090  RH  074%=      5-min Rain = 0
KBR1 240556Z 34002KT M05/M09 A3019 RMK A01 T10501091  RH  073%=      5-min Rain = 0
KBR1 240557Z 33002KT M05/M09 A302 RMK A01 T10491091  RH  073%=      5-min Rain = 0
KBR1 240558Z 33002KT M05/M09 A302 RMK A01 T10491091  RH  072%=      5-min Rain = 0
KBR1 240559Z 33002KT M05/M09 A302 RMK A01 T10491091  RH  072%=      5-min Rain = 0

Page generated in 0.1217 seconds.